<?xml version="1.0" encoding="UTF-8" standalone="no" ?>
<gpx xmlns="http://www.topografix.com/GPX/1/1" xmlns:xsi="http://www.w3.org/2001/XMLSchema-instance" xsi:schemaLocation="http://www.topografix.com/GPX/1/1 http://www.topografix.com/GPX/1/1/gpx.xsd" version="1.1" creator="VisuGPX - https://www.visugpx.com">
  <metadata>
    <name>Saint Sauvy HP</name>
    <desc><![CDATA[boucle de 9 km à partir de saint sauvy]]></desc>
  </metadata>
  <trk>
    <name><![CDATA[Tracé actuel: 09 DEC 2020 10:11]]></name>
    <extensions>
      <line xmlns="http://www.topografix.com/GPX/gpx_style/0/2">
        <color>0000FF</color>
        <width>4</width>
      </line>
    </extensions>
    <trkseg>
      <trkpt lat="43.69466" lon="0.81961">
        <ele>163.56</ele>
        <time>2020-12-09T09:11:55Z</time>
      </trkpt>
      <trkpt lat="43.69465" lon="0.81989">
        <ele>164.04</ele>
        <time>2020-12-09T09:14:01Z</time>
      </trkpt>
      <trkpt lat="43.69483" lon="0.82037">
        <ele>158.27</ele>
        <time>2020-12-09T09:15:22Z</time>
      </trkpt>
      <trkpt lat="43.69477" lon="0.8205">
        <ele>158.27</ele>
        <time>2020-12-09T09:15:32Z</time>
      </trkpt>
      <trkpt lat="43.69469" lon="0.82062">
        <ele>157.31</ele>
        <time>2020-12-09T09:15:41Z</time>
      </trkpt>
      <trkpt lat="43.69463" lon="0.82076">
        <ele>156.35</ele>
        <time>2020-12-09T09:15:50Z</time>
      </trkpt>
      <trkpt lat="43.69457" lon="0.82089">
        <ele>155.39</ele>
        <time>2020-12-09T09:16:00Z</time>
      </trkpt>
      <trkpt lat="43.69447" lon="0.82105">
        <ele>153.47</ele>
        <time>2020-12-09T09:16:22Z</time>
      </trkpt>
      <trkpt lat="43.69445" lon="0.82124">
        <ele>151.54</ele>
        <time>2020-12-09T09:16:45Z</time>
      </trkpt>
      <trkpt lat="43.69443" lon="0.82139">
        <ele>149.62</ele>
        <time>2020-12-09T09:17:07Z</time>
      </trkpt>
      <trkpt lat="43.69438" lon="0.82152">
        <ele>146.74</ele>
        <time>2020-12-09T09:17:22Z</time>
      </trkpt>
      <trkpt lat="43.69433" lon="0.82168">
        <ele>143.37</ele>
        <time>2020-12-09T09:17:37Z</time>
      </trkpt>
      <trkpt lat="43.69425" lon="0.82201">
        <ele>136.64</ele>
        <time>2020-12-09T09:18:07Z</time>
      </trkpt>
      <trkpt lat="43.69405" lon="0.82253">
        <ele>130.4</ele>
        <time>2020-12-09T09:19:11Z</time>
      </trkpt>
      <trkpt lat="43.69394" lon="0.82269">
        <ele>128.47</ele>
        <time>2020-12-09T09:19:21Z</time>
      </trkpt>
      <trkpt lat="43.69386" lon="0.82285">
        <ele>128.47</ele>
        <time>2020-12-09T09:19:29Z</time>
      </trkpt>
      <trkpt lat="43.69386" lon="0.82302">
        <ele>128.47</ele>
        <time>2020-12-09T09:19:43Z</time>
      </trkpt>
      <trkpt lat="43.6939" lon="0.82319">
        <ele>127.51</ele>
        <time>2020-12-09T09:20:03Z</time>
      </trkpt>
      <trkpt lat="43.6939" lon="0.82339">
        <ele>127.51</ele>
        <time>2020-12-09T09:20:22Z</time>
      </trkpt>
      <trkpt lat="43.69391" lon="0.82356">
        <ele>127.51</ele>
        <time>2020-12-09T09:20:31Z</time>
      </trkpt>
      <trkpt lat="43.69392" lon="0.82373">
        <ele>127.51</ele>
        <time>2020-12-09T09:20:43Z</time>
      </trkpt>
      <trkpt lat="43.69393" lon="0.82391">
        <ele>127.51</ele>
        <time>2020-12-09T09:20:53Z</time>
      </trkpt>
      <trkpt lat="43.69395" lon="0.82408">
        <ele>127.51</ele>
        <time>2020-12-09T09:21:02Z</time>
      </trkpt>
      <trkpt lat="43.69396" lon="0.82427">
        <ele>127.51</ele>
        <time>2020-12-09T09:21:12Z</time>
      </trkpt>
      <trkpt lat="43.69398" lon="0.82444">
        <ele>126.55</ele>
        <time>2020-12-09T09:21:23Z</time>
      </trkpt>
      <trkpt lat="43.694" lon="0.8246">
        <ele>126.55</ele>
        <time>2020-12-09T09:21:32Z</time>
      </trkpt>
      <trkpt lat="43.69403" lon="0.82477">
        <ele>126.55</ele>
        <time>2020-12-09T09:21:41Z</time>
      </trkpt>
      <trkpt lat="43.69407" lon="0.82494">
        <ele>126.55</ele>
        <time>2020-12-09T09:21:51Z</time>
      </trkpt>
      <trkpt lat="43.69411" lon="0.82513">
        <ele>126.55</ele>
        <time>2020-12-09T09:22:02Z</time>
      </trkpt>
      <trkpt lat="43.69412" lon="0.82532">
        <ele>126.55</ele>
        <time>2020-12-09T09:22:12Z</time>
      </trkpt>
      <trkpt lat="43.69411" lon="0.82552">
        <ele>126.07</ele>
        <time>2020-12-09T09:22:22Z</time>
      </trkpt>
      <trkpt lat="43.69411" lon="0.82571">
        <ele>126.07</ele>
        <time>2020-12-09T09:22:32Z</time>
      </trkpt>
      <trkpt lat="43.6941" lon="0.82592">
        <ele>126.07</ele>
        <time>2020-12-09T09:22:45Z</time>
      </trkpt>
      <trkpt lat="43.69417" lon="0.82607">
        <ele>126.07</ele>
        <time>2020-12-09T09:22:58Z</time>
      </trkpt>
      <trkpt lat="43.69415" lon="0.82637">
        <ele>127.51</ele>
        <time>2020-12-09T09:23:59Z</time>
      </trkpt>
      <trkpt lat="43.69402" lon="0.82631">
        <ele>125.11</ele>
        <time>2020-12-09T09:24:13Z</time>
      </trkpt>
      <trkpt lat="43.69395" lon="0.82644">
        <ele>125.11</ele>
        <time>2020-12-09T09:24:26Z</time>
      </trkpt>
      <trkpt lat="43.69388" lon="0.82665">
        <ele>125.11</ele>
        <time>2020-12-09T09:24:44Z</time>
      </trkpt>
      <trkpt lat="43.69382" lon="0.82687">
        <ele>125.11</ele>
        <time>2020-12-09T09:24:58Z</time>
      </trkpt>
      <trkpt lat="43.69379" lon="0.82705">
        <ele>125.11</ele>
        <time>2020-12-09T09:25:09Z</time>
      </trkpt>
      <trkpt lat="43.69376" lon="0.8272">
        <ele>125.11</ele>
        <time>2020-12-09T09:25:18Z</time>
      </trkpt>
      <trkpt lat="43.69373" lon="0.82735">
        <ele>125.11</ele>
        <time>2020-12-09T09:25:26Z</time>
      </trkpt>
      <trkpt lat="43.69371" lon="0.82751">
        <ele>126.55</ele>
        <time>2020-12-09T09:25:36Z</time>
      </trkpt>
      <trkpt lat="43.6937" lon="0.82767">
        <ele>127.03</ele>
        <time>2020-12-09T09:25:45Z</time>
      </trkpt>
      <trkpt lat="43.6937" lon="0.82785">
        <ele>127.51</ele>
        <time>2020-12-09T09:25:55Z</time>
      </trkpt>
      <trkpt lat="43.6937" lon="0.82804">
        <ele>127.51</ele>
        <time>2020-12-09T09:26:07Z</time>
      </trkpt>
      <trkpt lat="43.69372" lon="0.82822">
        <ele>127.99</ele>
        <time>2020-12-09T09:26:17Z</time>
      </trkpt>
      <trkpt lat="43.69377" lon="0.82839">
        <ele>128.95</ele>
        <time>2020-12-09T09:26:28Z</time>
      </trkpt>
      <trkpt lat="43.69384" lon="0.82856">
        <ele>129.92</ele>
        <time>2020-12-09T09:26:38Z</time>
      </trkpt>
      <trkpt lat="43.6939" lon="0.82872">
        <ele>129.43</ele>
        <time>2020-12-09T09:26:47Z</time>
      </trkpt>
      <trkpt lat="43.69398" lon="0.82884">
        <ele>127.51</ele>
        <time>2020-12-09T09:26:56Z</time>
      </trkpt>
      <trkpt lat="43.69407" lon="0.82894">
        <ele>127.03</ele>
        <time>2020-12-09T09:27:05Z</time>
      </trkpt>
      <trkpt lat="43.69415" lon="0.82908">
        <ele>127.03</ele>
        <time>2020-12-09T09:27:14Z</time>
      </trkpt>
      <trkpt lat="43.69421" lon="0.82924">
        <ele>126.55</ele>
        <time>2020-12-09T09:27:23Z</time>
      </trkpt>
      <trkpt lat="43.6943" lon="0.82938">
        <ele>126.07</ele>
        <time>2020-12-09T09:27:33Z</time>
      </trkpt>
      <trkpt lat="43.69439" lon="0.82951">
        <ele>125.59</ele>
        <time>2020-12-09T09:27:43Z</time>
      </trkpt>
      <trkpt lat="43.69448" lon="0.82965">
        <ele>125.11</ele>
        <time>2020-12-09T09:27:52Z</time>
      </trkpt>
      <trkpt lat="43.69456" lon="0.82977">
        <ele>125.11</ele>
        <time>2020-12-09T09:28:01Z</time>
      </trkpt>
      <trkpt lat="43.69465" lon="0.82991">
        <ele>125.11</ele>
        <time>2020-12-09T09:28:10Z</time>
      </trkpt>
      <trkpt lat="43.69472" lon="0.83003">
        <ele>125.11</ele>
        <time>2020-12-09T09:28:18Z</time>
      </trkpt>
      <trkpt lat="43.6948" lon="0.83014">
        <ele>125.11</ele>
        <time>2020-12-09T09:28:26Z</time>
      </trkpt>
      <trkpt lat="43.69489" lon="0.83026">
        <ele>124.63</ele>
        <time>2020-12-09T09:28:34Z</time>
      </trkpt>
      <trkpt lat="43.69499" lon="0.83034">
        <ele>124.63</ele>
        <time>2020-12-09T09:28:42Z</time>
      </trkpt>
      <trkpt lat="43.69508" lon="0.8304">
        <ele>124.63</ele>
        <time>2020-12-09T09:28:49Z</time>
      </trkpt>
      <trkpt lat="43.69518" lon="0.83045">
        <ele>124.63</ele>
        <time>2020-12-09T09:28:57Z</time>
      </trkpt>
      <trkpt lat="43.69528" lon="0.8305">
        <ele>124.63</ele>
        <time>2020-12-09T09:29:05Z</time>
      </trkpt>
      <trkpt lat="43.69539" lon="0.83055">
        <ele>124.63</ele>
        <time>2020-12-09T09:29:13Z</time>
      </trkpt>
      <trkpt lat="43.69548" lon="0.8306">
        <ele>124.63</ele>
        <time>2020-12-09T09:29:20Z</time>
      </trkpt>
      <trkpt lat="43.69559" lon="0.83065">
        <ele>124.15</ele>
        <time>2020-12-09T09:29:28Z</time>
      </trkpt>
      <trkpt lat="43.69569" lon="0.83069">
        <ele>124.15</ele>
        <time>2020-12-09T09:29:37Z</time>
      </trkpt>
      <trkpt lat="43.6958" lon="0.83073">
        <ele>124.15</ele>
        <time>2020-12-09T09:29:46Z</time>
      </trkpt>
      <trkpt lat="43.69592" lon="0.83077">
        <ele>124.15</ele>
        <time>2020-12-09T09:29:55Z</time>
      </trkpt>
      <trkpt lat="43.69603" lon="0.83081">
        <ele>124.15</ele>
        <time>2020-12-09T09:30:03Z</time>
      </trkpt>
      <trkpt lat="43.69614" lon="0.83083">
        <ele>124.15</ele>
        <time>2020-12-09T09:30:11Z</time>
      </trkpt>
      <trkpt lat="43.69626" lon="0.83086">
        <ele>124.15</ele>
        <time>2020-12-09T09:30:20Z</time>
      </trkpt>
      <trkpt lat="43.69638" lon="0.8309">
        <ele>124.15</ele>
        <time>2020-12-09T09:30:29Z</time>
      </trkpt>
      <trkpt lat="43.6965" lon="0.83091">
        <ele>124.15</ele>
        <time>2020-12-09T09:30:38Z</time>
      </trkpt>
      <trkpt lat="43.69664" lon="0.83095">
        <ele>124.15</ele>
        <time>2020-12-09T09:30:48Z</time>
      </trkpt>
      <trkpt lat="43.6968" lon="0.83099">
        <ele>124.15</ele>
        <time>2020-12-09T09:31:05Z</time>
      </trkpt>
      <trkpt lat="43.69691" lon="0.83101">
        <ele>124.15</ele>
        <time>2020-12-09T09:31:13Z</time>
      </trkpt>
      <trkpt lat="43.69702" lon="0.83103">
        <ele>124.15</ele>
        <time>2020-12-09T09:31:21Z</time>
      </trkpt>
      <trkpt lat="43.69713" lon="0.83106">
        <ele>124.15</ele>
        <time>2020-12-09T09:31:30Z</time>
      </trkpt>
      <trkpt lat="43.69724" lon="0.83108">
        <ele>124.15</ele>
        <time>2020-12-09T09:31:39Z</time>
      </trkpt>
      <trkpt lat="43.69737" lon="0.8311">
        <ele>124.15</ele>
        <time>2020-12-09T09:31:48Z</time>
      </trkpt>
      <trkpt lat="43.6975" lon="0.83114">
        <ele>124.15</ele>
        <time>2020-12-09T09:31:58Z</time>
      </trkpt>
      <trkpt lat="43.69762" lon="0.83119">
        <ele>123.67</ele>
        <time>2020-12-09T09:32:07Z</time>
      </trkpt>
      <trkpt lat="43.69773" lon="0.83125">
        <ele>123.67</ele>
        <time>2020-12-09T09:32:16Z</time>
      </trkpt>
      <trkpt lat="43.69785" lon="0.83131">
        <ele>123.67</ele>
        <time>2020-12-09T09:32:26Z</time>
      </trkpt>
      <trkpt lat="43.69797" lon="0.83137">
        <ele>123.67</ele>
        <time>2020-12-09T09:32:35Z</time>
      </trkpt>
      <trkpt lat="43.69809" lon="0.83141">
        <ele>123.67</ele>
        <time>2020-12-09T09:32:43Z</time>
      </trkpt>
      <trkpt lat="43.69819" lon="0.83143">
        <ele>123.67</ele>
        <time>2020-12-09T09:32:51Z</time>
      </trkpt>
      <trkpt lat="43.69831" lon="0.83143">
        <ele>123.19</ele>
        <time>2020-12-09T09:33:00Z</time>
      </trkpt>
      <trkpt lat="43.69842" lon="0.83142">
        <ele>123.19</ele>
        <time>2020-12-09T09:33:08Z</time>
      </trkpt>
      <trkpt lat="43.69855" lon="0.83141">
        <ele>123.19</ele>
        <time>2020-12-09T09:33:17Z</time>
      </trkpt>
      <trkpt lat="43.6987" lon="0.83142">
        <ele>122.22</ele>
        <time>2020-12-09T09:34:11Z</time>
      </trkpt>
      <trkpt lat="43.69885" lon="0.83138">
        <ele>122.22</ele>
        <time>2020-12-09T09:34:23Z</time>
      </trkpt>
      <trkpt lat="43.69898" lon="0.83133">
        <ele>122.22</ele>
        <time>2020-12-09T09:34:34Z</time>
      </trkpt>
      <trkpt lat="43.69916" lon="0.83146">
        <ele>124.63</ele>
        <time>2020-12-09T09:35:08Z</time>
      </trkpt>
      <trkpt lat="43.69925" lon="0.83155">
        <ele>124.15</ele>
        <time>2020-12-09T09:35:16Z</time>
      </trkpt>
      <trkpt lat="43.69934" lon="0.83162">
        <ele>124.15</ele>
        <time>2020-12-09T09:35:23Z</time>
      </trkpt>
      <trkpt lat="43.69942" lon="0.8317">
        <ele>124.63</ele>
        <time>2020-12-09T09:35:30Z</time>
      </trkpt>
      <trkpt lat="43.69951" lon="0.83179">
        <ele>125.11</ele>
        <time>2020-12-09T09:35:38Z</time>
      </trkpt>
      <trkpt lat="43.6996" lon="0.83187">
        <ele>125.59</ele>
        <time>2020-12-09T09:35:45Z</time>
      </trkpt>
      <trkpt lat="43.69968" lon="0.83193">
        <ele>126.55</ele>
        <time>2020-12-09T09:35:52Z</time>
      </trkpt>
      <trkpt lat="43.69976" lon="0.83202">
        <ele>127.51</ele>
        <time>2020-12-09T09:36:00Z</time>
      </trkpt>
      <trkpt lat="43.69983" lon="0.83212">
        <ele>127.99</ele>
        <time>2020-12-09T09:36:08Z</time>
      </trkpt>
      <trkpt lat="43.6999" lon="0.83225">
        <ele>128.47</ele>
        <time>2020-12-09T09:36:16Z</time>
      </trkpt>
      <trkpt lat="43.69994" lon="0.83237">
        <ele>129.43</ele>
        <time>2020-12-09T09:36:23Z</time>
      </trkpt>
      <trkpt lat="43.7" lon="0.83248">
        <ele>130.4</ele>
        <time>2020-12-09T09:36:31Z</time>
      </trkpt>
      <trkpt lat="43.70006" lon="0.83261">
        <ele>128.95</ele>
        <time>2020-12-09T09:36:39Z</time>
      </trkpt>
      <trkpt lat="43.70012" lon="0.83273">
        <ele>128.95</ele>
        <time>2020-12-09T09:36:46Z</time>
      </trkpt>
      <trkpt lat="43.70018" lon="0.83284">
        <ele>128.47</ele>
        <time>2020-12-09T09:36:53Z</time>
      </trkpt>
      <trkpt lat="43.70023" lon="0.83295">
        <ele>128.47</ele>
        <time>2020-12-09T09:37:00Z</time>
      </trkpt>
      <trkpt lat="43.70029" lon="0.83307">
        <ele>128.47</ele>
        <time>2020-12-09T09:37:07Z</time>
      </trkpt>
      <trkpt lat="43.70034" lon="0.83318">
        <ele>127.99</ele>
        <time>2020-12-09T09:37:14Z</time>
      </trkpt>
      <trkpt lat="43.7004" lon="0.83332">
        <ele>127.03</ele>
        <time>2020-12-09T09:37:22Z</time>
      </trkpt>
      <trkpt lat="43.70046" lon="0.83345">
        <ele>127.03</ele>
        <time>2020-12-09T09:37:30Z</time>
      </trkpt>
      <trkpt lat="43.70053" lon="0.83358">
        <ele>127.03</ele>
        <time>2020-12-09T09:37:38Z</time>
      </trkpt>
      <trkpt lat="43.70059" lon="0.83369">
        <ele>126.55</ele>
        <time>2020-12-09T09:37:45Z</time>
      </trkpt>
      <trkpt lat="43.70065" lon="0.83382">
        <ele>126.55</ele>
        <time>2020-12-09T09:37:53Z</time>
      </trkpt>
      <trkpt lat="43.70071" lon="0.83395">
        <ele>126.55</ele>
        <time>2020-12-09T09:38:01Z</time>
      </trkpt>
      <trkpt lat="43.70077" lon="0.83408">
        <ele>126.55</ele>
        <time>2020-12-09T09:38:10Z</time>
      </trkpt>
      <trkpt lat="43.70084" lon="0.83421">
        <ele>126.55</ele>
        <time>2020-12-09T09:38:19Z</time>
      </trkpt>
      <trkpt lat="43.7009" lon="0.83435">
        <ele>126.55</ele>
        <time>2020-12-09T09:38:28Z</time>
      </trkpt>
      <trkpt lat="43.70098" lon="0.83447">
        <ele>126.55</ele>
        <time>2020-12-09T09:38:39Z</time>
      </trkpt>
      <trkpt lat="43.70107" lon="0.83461">
        <ele>126.07</ele>
        <time>2020-12-09T09:38:49Z</time>
      </trkpt>
      <trkpt lat="43.70116" lon="0.83475">
        <ele>125.59</ele>
        <time>2020-12-09T09:38:59Z</time>
      </trkpt>
      <trkpt lat="43.70124" lon="0.83487">
        <ele>125.11</ele>
        <time>2020-12-09T09:39:07Z</time>
      </trkpt>
      <trkpt lat="43.70132" lon="0.83499">
        <ele>124.63</ele>
        <time>2020-12-09T09:39:16Z</time>
      </trkpt>
      <trkpt lat="43.70141" lon="0.83509">
        <ele>124.15</ele>
        <time>2020-12-09T09:39:25Z</time>
      </trkpt>
      <trkpt lat="43.70148" lon="0.83524">
        <ele>124.15</ele>
        <time>2020-12-09T09:39:34Z</time>
      </trkpt>
      <trkpt lat="43.70156" lon="0.83538">
        <ele>123.67</ele>
        <time>2020-12-09T09:39:43Z</time>
      </trkpt>
      <trkpt lat="43.70162" lon="0.83552">
        <ele>123.19</ele>
        <time>2020-12-09T09:39:51Z</time>
      </trkpt>
      <trkpt lat="43.70169" lon="0.83569">
        <ele>122.71</ele>
        <time>2020-12-09T09:40:00Z</time>
      </trkpt>
      <trkpt lat="43.70176" lon="0.83584">
        <ele>122.71</ele>
        <time>2020-12-09T09:40:09Z</time>
      </trkpt>
      <trkpt lat="43.70183" lon="0.83598">
        <ele>122.71</ele>
        <time>2020-12-09T09:40:17Z</time>
      </trkpt>
      <trkpt lat="43.7019" lon="0.83611">
        <ele>122.22</ele>
        <time>2020-12-09T09:40:25Z</time>
      </trkpt>
      <trkpt lat="43.70197" lon="0.8363">
        <ele>121.74</ele>
        <time>2020-12-09T09:40:35Z</time>
      </trkpt>
      <trkpt lat="43.70204" lon="0.83648">
        <ele>121.74</ele>
        <time>2020-12-09T09:40:43Z</time>
      </trkpt>
      <trkpt lat="43.7021" lon="0.83664">
        <ele>121.74</ele>
        <time>2020-12-09T09:40:51Z</time>
      </trkpt>
      <trkpt lat="43.70216" lon="0.83678">
        <ele>121.74</ele>
        <time>2020-12-09T09:40:59Z</time>
      </trkpt>
      <trkpt lat="43.7022" lon="0.83694">
        <ele>121.74</ele>
        <time>2020-12-09T09:41:07Z</time>
      </trkpt>
      <trkpt lat="43.70224" lon="0.83708">
        <ele>121.74</ele>
        <time>2020-12-09T09:41:15Z</time>
      </trkpt>
      <trkpt lat="43.70225" lon="0.83725">
        <ele>121.74</ele>
        <time>2020-12-09T09:41:27Z</time>
      </trkpt>
      <trkpt lat="43.70223" lon="0.83741">
        <ele>121.74</ele>
        <time>2020-12-09T09:41:36Z</time>
      </trkpt>
      <trkpt lat="43.7022" lon="0.83758">
        <ele>121.74</ele>
        <time>2020-12-09T09:41:46Z</time>
      </trkpt>
      <trkpt lat="43.70218" lon="0.83775">
        <ele>122.71</ele>
        <time>2020-12-09T09:41:56Z</time>
      </trkpt>
      <trkpt lat="43.70217" lon="0.83795">
        <ele>123.19</ele>
        <time>2020-12-09T09:42:06Z</time>
      </trkpt>
      <trkpt lat="43.70216" lon="0.8382">
        <ele>123.19</ele>
        <time>2020-12-09T09:42:15Z</time>
      </trkpt>
      <trkpt lat="43.70219" lon="0.83838">
        <ele>123.19</ele>
        <time>2020-12-09T09:42:25Z</time>
      </trkpt>
      <trkpt lat="43.70222" lon="0.83853">
        <ele>123.19</ele>
        <time>2020-12-09T09:42:35Z</time>
      </trkpt>
      <trkpt lat="43.70224" lon="0.8387">
        <ele>123.19</ele>
        <time>2020-12-09T09:42:44Z</time>
      </trkpt>
      <trkpt lat="43.70225" lon="0.83889">
        <ele>123.19</ele>
        <time>2020-12-09T09:42:52Z</time>
      </trkpt>
      <trkpt lat="43.70225" lon="0.83906">
        <ele>123.19</ele>
        <time>2020-12-09T09:43:01Z</time>
      </trkpt>
      <trkpt lat="43.70226" lon="0.83922">
        <ele>121.74</ele>
        <time>2020-12-09T09:43:09Z</time>
      </trkpt>
      <trkpt lat="43.70229" lon="0.83941">
        <ele>121.26</ele>
        <time>2020-12-09T09:43:20Z</time>
      </trkpt>
      <trkpt lat="43.7023" lon="0.8396">
        <ele>120.78</ele>
        <time>2020-12-09T09:43:28Z</time>
      </trkpt>
      <trkpt lat="43.70231" lon="0.8398">
        <ele>120.78</ele>
        <time>2020-12-09T09:43:37Z</time>
      </trkpt>
      <trkpt lat="43.7023" lon="0.84">
        <ele>120.78</ele>
        <time>2020-12-09T09:43:46Z</time>
      </trkpt>
      <trkpt lat="43.7023" lon="0.84023">
        <ele>120.78</ele>
        <time>2020-12-09T09:43:55Z</time>
      </trkpt>
      <trkpt lat="43.70234" lon="0.84039">
        <ele>120.78</ele>
        <time>2020-12-09T09:44:04Z</time>
      </trkpt>
      <trkpt lat="43.70248" lon="0.84038">
        <ele>123.67</ele>
        <time>2020-12-09T09:44:26Z</time>
      </trkpt>
      <trkpt lat="43.70271" lon="0.8403">
        <ele>126.55</ele>
        <time>2020-12-09T09:44:47Z</time>
      </trkpt>
      <trkpt lat="43.70301" lon="0.84021">
        <ele>129.92</ele>
        <time>2020-12-09T09:45:13Z</time>
      </trkpt>
      <trkpt lat="43.70315" lon="0.84017">
        <ele>131.84</ele>
        <time>2020-12-09T09:45:25Z</time>
      </trkpt>
      <trkpt lat="43.70327" lon="0.84014">
        <ele>133.28</ele>
        <time>2020-12-09T09:45:35Z</time>
      </trkpt>
      <trkpt lat="43.70338" lon="0.84011">
        <ele>134.72</ele>
        <time>2020-12-09T09:45:44Z</time>
      </trkpt>
      <trkpt lat="43.70352" lon="0.84008">
        <ele>136.16</ele>
        <time>2020-12-09T09:45:52Z</time>
      </trkpt>
      <trkpt lat="43.70364" lon="0.84003">
        <ele>136.64</ele>
        <time>2020-12-09T09:45:59Z</time>
      </trkpt>
      <trkpt lat="43.70373" lon="0.83996">
        <ele>137.61</ele>
        <time>2020-12-09T09:46:06Z</time>
      </trkpt>
      <trkpt lat="43.70382" lon="0.83988">
        <ele>138.57</ele>
        <time>2020-12-09T09:46:14Z</time>
      </trkpt>
      <trkpt lat="43.70391" lon="0.8398">
        <ele>140.01</ele>
        <time>2020-12-09T09:46:22Z</time>
      </trkpt>
      <trkpt lat="43.70399" lon="0.83971">
        <ele>140.97</ele>
        <time>2020-12-09T09:46:30Z</time>
      </trkpt>
      <trkpt lat="43.70408" lon="0.83964">
        <ele>141.93</ele>
        <time>2020-12-09T09:46:37Z</time>
      </trkpt>
      <trkpt lat="43.70416" lon="0.83956">
        <ele>142.89</ele>
        <time>2020-12-09T09:46:44Z</time>
      </trkpt>
      <trkpt lat="43.70424" lon="0.83948">
        <ele>143.85</ele>
        <time>2020-12-09T09:46:51Z</time>
      </trkpt>
      <trkpt lat="43.70432" lon="0.8394">
        <ele>144.34</ele>
        <time>2020-12-09T09:46:58Z</time>
      </trkpt>
      <trkpt lat="43.70439" lon="0.8393">
        <ele>145.3</ele>
        <time>2020-12-09T09:47:05Z</time>
      </trkpt>
      <trkpt lat="43.70446" lon="0.83921">
        <ele>146.26</ele>
        <time>2020-12-09T09:47:12Z</time>
      </trkpt>
      <trkpt lat="43.70453" lon="0.8391">
        <ele>147.22</ele>
        <time>2020-12-09T09:47:20Z</time>
      </trkpt>
      <trkpt lat="43.70459" lon="0.83901">
        <ele>148.66</ele>
        <time>2020-12-09T09:47:27Z</time>
      </trkpt>
      <trkpt lat="43.70465" lon="0.8389">
        <ele>150.1</ele>
        <time>2020-12-09T09:47:35Z</time>
      </trkpt>
      <trkpt lat="43.70464" lon="0.83877">
        <ele>151.54</ele>
        <time>2020-12-09T09:47:43Z</time>
      </trkpt>
      <trkpt lat="43.70459" lon="0.83866">
        <ele>152.99</ele>
        <time>2020-12-09T09:47:50Z</time>
      </trkpt>
      <trkpt lat="43.70453" lon="0.83856">
        <ele>154.43</ele>
        <time>2020-12-09T09:47:57Z</time>
      </trkpt>
      <trkpt lat="43.70447" lon="0.83845">
        <ele>155.87</ele>
        <time>2020-12-09T09:48:05Z</time>
      </trkpt>
      <trkpt lat="43.7044" lon="0.83834">
        <ele>156.35</ele>
        <time>2020-12-09T09:48:14Z</time>
      </trkpt>
      <trkpt lat="43.70435" lon="0.83823">
        <ele>156.83</ele>
        <time>2020-12-09T09:48:21Z</time>
      </trkpt>
      <trkpt lat="43.70429" lon="0.83811">
        <ele>157.31</ele>
        <time>2020-12-09T09:48:29Z</time>
      </trkpt>
      <trkpt lat="43.70423" lon="0.838">
        <ele>157.79</ele>
        <time>2020-12-09T09:48:37Z</time>
      </trkpt>
      <trkpt lat="43.70418" lon="0.83788">
        <ele>157.79</ele>
        <time>2020-12-09T09:48:45Z</time>
      </trkpt>
      <trkpt lat="43.70422" lon="0.83777">
        <ele>158.27</ele>
        <time>2020-12-09T09:48:53Z</time>
      </trkpt>
      <trkpt lat="43.70426" lon="0.83765">
        <ele>159.24</ele>
        <time>2020-12-09T09:49:00Z</time>
      </trkpt>
      <trkpt lat="43.70432" lon="0.83753">
        <ele>160.68</ele>
        <time>2020-12-09T09:49:08Z</time>
      </trkpt>
      <trkpt lat="43.70441" lon="0.83744">
        <ele>161.64</ele>
        <time>2020-12-09T09:49:16Z</time>
      </trkpt>
      <trkpt lat="43.7045" lon="0.83739">
        <ele>163.08</ele>
        <time>2020-12-09T09:49:24Z</time>
      </trkpt>
      <trkpt lat="43.7046" lon="0.83736">
        <ele>164.04</ele>
        <time>2020-12-09T09:49:35Z</time>
      </trkpt>
      <trkpt lat="43.70471" lon="0.83733">
        <ele>164.52</ele>
        <time>2020-12-09T09:50:01Z</time>
      </trkpt>
      <trkpt lat="43.7048" lon="0.8373">
        <ele>165</ele>
        <time>2020-12-09T09:50:10Z</time>
      </trkpt>
      <trkpt lat="43.70488" lon="0.83725">
        <ele>165.48</ele>
        <time>2020-12-09T09:50:18Z</time>
      </trkpt>
      <trkpt lat="43.70497" lon="0.83721">
        <ele>165.96</ele>
        <time>2020-12-09T09:50:25Z</time>
      </trkpt>
      <trkpt lat="43.70506" lon="0.83718">
        <ele>166.45</ele>
        <time>2020-12-09T09:50:33Z</time>
      </trkpt>
      <trkpt lat="43.70516" lon="0.83714">
        <ele>166.93</ele>
        <time>2020-12-09T09:50:40Z</time>
      </trkpt>
      <trkpt lat="43.70525" lon="0.8371">
        <ele>167.89</ele>
        <time>2020-12-09T09:50:48Z</time>
      </trkpt>
      <trkpt lat="43.70534" lon="0.83704">
        <ele>168.37</ele>
        <time>2020-12-09T09:50:56Z</time>
      </trkpt>
      <trkpt lat="43.70543" lon="0.83697">
        <ele>168.37</ele>
        <time>2020-12-09T09:51:04Z</time>
      </trkpt>
      <trkpt lat="43.70552" lon="0.83691">
        <ele>168.37</ele>
        <time>2020-12-09T09:51:11Z</time>
      </trkpt>
      <trkpt lat="43.7056" lon="0.83685">
        <ele>169.33</ele>
        <time>2020-12-09T09:51:18Z</time>
      </trkpt>
      <trkpt lat="43.70568" lon="0.83678">
        <ele>169.81</ele>
        <time>2020-12-09T09:51:26Z</time>
      </trkpt>
      <trkpt lat="43.70577" lon="0.8367">
        <ele>170.29</ele>
        <time>2020-12-09T09:51:34Z</time>
      </trkpt>
      <trkpt lat="43.70586" lon="0.83664">
        <ele>170.77</ele>
        <time>2020-12-09T09:51:42Z</time>
      </trkpt>
      <trkpt lat="43.70595" lon="0.83656">
        <ele>171.25</ele>
        <time>2020-12-09T09:51:51Z</time>
      </trkpt>
      <trkpt lat="43.70605" lon="0.83649">
        <ele>171.73</ele>
        <time>2020-12-09T09:52:00Z</time>
      </trkpt>
      <trkpt lat="43.70614" lon="0.83644">
        <ele>172.21</ele>
        <time>2020-12-09T09:52:08Z</time>
      </trkpt>
      <trkpt lat="43.70624" lon="0.83637">
        <ele>172.21</ele>
        <time>2020-12-09T09:52:16Z</time>
      </trkpt>
      <trkpt lat="43.70634" lon="0.83633">
        <ele>172.69</ele>
        <time>2020-12-09T09:52:24Z</time>
      </trkpt>
      <trkpt lat="43.70643" lon="0.83628">
        <ele>173.66</ele>
        <time>2020-12-09T09:52:32Z</time>
      </trkpt>
      <trkpt lat="43.70653" lon="0.83624">
        <ele>174.14</ele>
        <time>2020-12-09T09:52:40Z</time>
      </trkpt>
      <trkpt lat="43.70662" lon="0.83621">
        <ele>174.62</ele>
        <time>2020-12-09T09:52:47Z</time>
      </trkpt>
      <trkpt lat="43.70672" lon="0.83619">
        <ele>175.58</ele>
        <time>2020-12-09T09:52:56Z</time>
      </trkpt>
      <trkpt lat="43.70682" lon="0.83616">
        <ele>176.06</ele>
        <time>2020-12-09T09:53:07Z</time>
      </trkpt>
      <trkpt lat="43.70693" lon="0.83614">
        <ele>176.54</ele>
        <time>2020-12-09T09:53:16Z</time>
      </trkpt>
      <trkpt lat="43.70701" lon="0.83613">
        <ele>177.02</ele>
        <time>2020-12-09T09:53:30Z</time>
      </trkpt>
      <trkpt lat="43.70711" lon="0.8361">
        <ele>177.5</ele>
        <time>2020-12-09T09:53:38Z</time>
      </trkpt>
      <trkpt lat="43.70722" lon="0.83606">
        <ele>177.98</ele>
        <time>2020-12-09T09:53:45Z</time>
      </trkpt>
      <trkpt lat="43.70729" lon="0.836">
        <ele>178.46</ele>
        <time>2020-12-09T09:53:52Z</time>
      </trkpt>
      <trkpt lat="43.70739" lon="0.83592">
        <ele>178.94</ele>
        <time>2020-12-09T09:54:08Z</time>
      </trkpt>
      <trkpt lat="43.70747" lon="0.83584">
        <ele>178.94</ele>
        <time>2020-12-09T09:54:18Z</time>
      </trkpt>
      <trkpt lat="43.70756" lon="0.83577">
        <ele>179.42</ele>
        <time>2020-12-09T09:54:27Z</time>
      </trkpt>
      <trkpt lat="43.70764" lon="0.83568">
        <ele>179.42</ele>
        <time>2020-12-09T09:54:36Z</time>
      </trkpt>
      <trkpt lat="43.70773" lon="0.83561">
        <ele>179.9</ele>
        <time>2020-12-09T09:54:45Z</time>
      </trkpt>
      <trkpt lat="43.70781" lon="0.83553">
        <ele>180.38</ele>
        <time>2020-12-09T09:54:53Z</time>
      </trkpt>
      <trkpt lat="43.70788" lon="0.83547">
        <ele>180.87</ele>
        <time>2020-12-09T09:55:01Z</time>
      </trkpt>
      <trkpt lat="43.70796" lon="0.8354">
        <ele>181.35</ele>
        <time>2020-12-09T09:55:09Z</time>
      </trkpt>
      <trkpt lat="43.70805" lon="0.83532">
        <ele>181.83</ele>
        <time>2020-12-09T09:55:17Z</time>
      </trkpt>
      <trkpt lat="43.70814" lon="0.83526">
        <ele>182.31</ele>
        <time>2020-12-09T09:55:25Z</time>
      </trkpt>
      <trkpt lat="43.70823" lon="0.83519">
        <ele>182.79</ele>
        <time>2020-12-09T09:55:32Z</time>
      </trkpt>
      <trkpt lat="43.70832" lon="0.83511">
        <ele>183.75</ele>
        <time>2020-12-09T09:55:40Z</time>
      </trkpt>
      <trkpt lat="43.70841" lon="0.83503">
        <ele>184.23</ele>
        <time>2020-12-09T09:55:48Z</time>
      </trkpt>
      <trkpt lat="43.70848" lon="0.83493">
        <ele>185.67</ele>
        <time>2020-12-09T09:55:55Z</time>
      </trkpt>
      <trkpt lat="43.70857" lon="0.83486">
        <ele>185.67</ele>
        <time>2020-12-09T09:56:02Z</time>
      </trkpt>
      <trkpt lat="43.70866" lon="0.8348">
        <ele>186.15</ele>
        <time>2020-12-09T09:56:10Z</time>
      </trkpt>
      <trkpt lat="43.70875" lon="0.83472">
        <ele>187.11</ele>
        <time>2020-12-09T09:56:18Z</time>
      </trkpt>
      <trkpt lat="43.70883" lon="0.83465">
        <ele>187.11</ele>
        <time>2020-12-09T09:56:25Z</time>
      </trkpt>
      <trkpt lat="43.70891" lon="0.83457">
        <ele>187.59</ele>
        <time>2020-12-09T09:56:32Z</time>
      </trkpt>
      <trkpt lat="43.70897" lon="0.83448">
        <ele>188.08</ele>
        <time>2020-12-09T09:56:39Z</time>
      </trkpt>
      <trkpt lat="43.70905" lon="0.83439">
        <ele>188.08</ele>
        <time>2020-12-09T09:56:47Z</time>
      </trkpt>
      <trkpt lat="43.70913" lon="0.8343">
        <ele>188.56</ele>
        <time>2020-12-09T09:56:56Z</time>
      </trkpt>
      <trkpt lat="43.70921" lon="0.8342">
        <ele>189.04</ele>
        <time>2020-12-09T09:57:04Z</time>
      </trkpt>
      <trkpt lat="43.70929" lon="0.83409">
        <ele>189.52</ele>
        <time>2020-12-09T09:57:12Z</time>
      </trkpt>
      <trkpt lat="43.70937" lon="0.83399">
        <ele>189.52</ele>
        <time>2020-12-09T09:57:20Z</time>
      </trkpt>
      <trkpt lat="43.70945" lon="0.83388">
        <ele>190</ele>
        <time>2020-12-09T09:57:28Z</time>
      </trkpt>
      <trkpt lat="43.70953" lon="0.83379">
        <ele>190.96</ele>
        <time>2020-12-09T09:57:35Z</time>
      </trkpt>
      <trkpt lat="43.7096" lon="0.83368">
        <ele>191.44</ele>
        <time>2020-12-09T09:57:44Z</time>
      </trkpt>
      <trkpt lat="43.70968" lon="0.83359">
        <ele>191.92</ele>
        <time>2020-12-09T09:57:55Z</time>
      </trkpt>
      <trkpt lat="43.70971" lon="0.8335">
        <ele>191.92</ele>
        <time>2020-12-09T09:58:07Z</time>
      </trkpt>
      <trkpt lat="43.70978" lon="0.83339">
        <ele>191.92</ele>
        <time>2020-12-09T09:58:15Z</time>
      </trkpt>
      <trkpt lat="43.70983" lon="0.83328">
        <ele>192.4</ele>
        <time>2020-12-09T09:58:23Z</time>
      </trkpt>
      <trkpt lat="43.70988" lon="0.83317">
        <ele>192.88</ele>
        <time>2020-12-09T09:58:31Z</time>
      </trkpt>
      <trkpt lat="43.70993" lon="0.83306">
        <ele>193.84</ele>
        <time>2020-12-09T09:58:40Z</time>
      </trkpt>
      <trkpt lat="43.71002" lon="0.83294">
        <ele>193.84</ele>
        <time>2020-12-09T09:58:50Z</time>
      </trkpt>
      <trkpt lat="43.71007" lon="0.83283">
        <ele>194.8</ele>
        <time>2020-12-09T09:59:05Z</time>
      </trkpt>
      <trkpt lat="43.71011" lon="0.83269">
        <ele>194.8</ele>
        <time>2020-12-09T09:59:14Z</time>
      </trkpt>
      <trkpt lat="43.71016" lon="0.8326">
        <ele>195.28</ele>
        <time>2020-12-09T09:59:25Z</time>
      </trkpt>
      <trkpt lat="43.71019" lon="0.83248">
        <ele>195.28</ele>
        <time>2020-12-09T09:59:44Z</time>
      </trkpt>
      <trkpt lat="43.71024" lon="0.83235">
        <ele>195.77</ele>
        <time>2020-12-09T09:59:52Z</time>
      </trkpt>
      <trkpt lat="43.71031" lon="0.83222">
        <ele>195.77</ele>
        <time>2020-12-09T10:00:00Z</time>
      </trkpt>
      <trkpt lat="43.71037" lon="0.83211">
        <ele>195.77</ele>
        <time>2020-12-09T10:00:09Z</time>
      </trkpt>
      <trkpt lat="43.71044" lon="0.83198">
        <ele>196.25</ele>
        <time>2020-12-09T10:00:20Z</time>
      </trkpt>
      <trkpt lat="43.7105" lon="0.83181">
        <ele>196.25</ele>
        <time>2020-12-09T10:00:35Z</time>
      </trkpt>
      <trkpt lat="43.71058" lon="0.83163">
        <ele>196.25</ele>
        <time>2020-12-09T10:00:51Z</time>
      </trkpt>
      <trkpt lat="43.71065" lon="0.8314">
        <ele>194.32</ele>
        <time>2020-12-09T10:01:21Z</time>
      </trkpt>
      <trkpt lat="43.7107" lon="0.83126">
        <ele>194.8</ele>
        <time>2020-12-09T10:01:35Z</time>
      </trkpt>
      <trkpt lat="43.71074" lon="0.83111">
        <ele>193.84</ele>
        <time>2020-12-09T10:01:47Z</time>
      </trkpt>
      <trkpt lat="43.71077" lon="0.83093">
        <ele>193.84</ele>
        <time>2020-12-09T10:02:00Z</time>
      </trkpt>
      <trkpt lat="43.71079" lon="0.83067">
        <ele>193.36</ele>
        <time>2020-12-09T10:03:20Z</time>
      </trkpt>
      <trkpt lat="43.71081" lon="0.83053">
        <ele>193.36</ele>
        <time>2020-12-09T10:03:30Z</time>
      </trkpt>
      <trkpt lat="43.71082" lon="0.83038">
        <ele>193.36</ele>
        <time>2020-12-09T10:03:40Z</time>
      </trkpt>
      <trkpt lat="43.71086" lon="0.83025">
        <ele>193.36</ele>
        <time>2020-12-09T10:03:49Z</time>
      </trkpt>
      <trkpt lat="43.71088" lon="0.83009">
        <ele>193.36</ele>
        <time>2020-12-09T10:03:58Z</time>
      </trkpt>
      <trkpt lat="43.71091" lon="0.82987">
        <ele>193.36</ele>
        <time>2020-12-09T10:04:14Z</time>
      </trkpt>
      <trkpt lat="43.71094" lon="0.82962">
        <ele>193.36</ele>
        <time>2020-12-09T10:04:27Z</time>
      </trkpt>
      <trkpt lat="43.71095" lon="0.82939">
        <ele>193.36</ele>
        <time>2020-12-09T10:04:39Z</time>
      </trkpt>
      <trkpt lat="43.71097" lon="0.82917">
        <ele>193.36</ele>
        <time>2020-12-09T10:04:51Z</time>
      </trkpt>
      <trkpt lat="43.711" lon="0.82895">
        <ele>194.8</ele>
        <time>2020-12-09T10:05:03Z</time>
      </trkpt>
      <trkpt lat="43.71104" lon="0.82872">
        <ele>195.28</ele>
        <time>2020-12-09T10:05:15Z</time>
      </trkpt>
      <trkpt lat="43.71109" lon="0.82851">
        <ele>195.28</ele>
        <time>2020-12-09T10:05:26Z</time>
      </trkpt>
      <trkpt lat="43.71114" lon="0.8283">
        <ele>195.28</ele>
        <time>2020-12-09T10:05:37Z</time>
      </trkpt>
      <trkpt lat="43.71122" lon="0.82813">
        <ele>195.77</ele>
        <time>2020-12-09T10:05:48Z</time>
      </trkpt>
      <trkpt lat="43.71129" lon="0.82797">
        <ele>195.77</ele>
        <time>2020-12-09T10:05:58Z</time>
      </trkpt>
      <trkpt lat="43.71138" lon="0.8278">
        <ele>195.77</ele>
        <time>2020-12-09T10:06:09Z</time>
      </trkpt>
      <trkpt lat="43.71145" lon="0.82762">
        <ele>195.77</ele>
        <time>2020-12-09T10:06:20Z</time>
      </trkpt>
      <trkpt lat="43.71153" lon="0.82743">
        <ele>195.77</ele>
        <time>2020-12-09T10:06:33Z</time>
      </trkpt>
      <trkpt lat="43.71163" lon="0.82724">
        <ele>195.28</ele>
        <time>2020-12-09T10:06:45Z</time>
      </trkpt>
      <trkpt lat="43.71172" lon="0.82705">
        <ele>195.28</ele>
        <time>2020-12-09T10:06:57Z</time>
      </trkpt>
      <trkpt lat="43.7118" lon="0.82688">
        <ele>195.28</ele>
        <time>2020-12-09T10:07:07Z</time>
      </trkpt>
      <trkpt lat="43.71188" lon="0.82674">
        <ele>195.28</ele>
        <time>2020-12-09T10:07:16Z</time>
      </trkpt>
      <trkpt lat="43.71196" lon="0.82658">
        <ele>195.28</ele>
        <time>2020-12-09T10:07:24Z</time>
      </trkpt>
      <trkpt lat="43.71205" lon="0.82644">
        <ele>195.28</ele>
        <time>2020-12-09T10:07:32Z</time>
      </trkpt>
      <trkpt lat="43.71212" lon="0.82631">
        <ele>195.28</ele>
        <time>2020-12-09T10:07:40Z</time>
      </trkpt>
      <trkpt lat="43.71217" lon="0.82617">
        <ele>195.28</ele>
        <time>2020-12-09T10:07:48Z</time>
      </trkpt>
      <trkpt lat="43.71223" lon="0.82601">
        <ele>195.28</ele>
        <time>2020-12-09T10:07:57Z</time>
      </trkpt>
      <trkpt lat="43.71229" lon="0.82586">
        <ele>195.28</ele>
        <time>2020-12-09T10:08:07Z</time>
      </trkpt>
      <trkpt lat="43.71236" lon="0.82571">
        <ele>195.28</ele>
        <time>2020-12-09T10:08:18Z</time>
      </trkpt>
      <trkpt lat="43.71242" lon="0.82554">
        <ele>195.28</ele>
        <time>2020-12-09T10:08:29Z</time>
      </trkpt>
      <trkpt lat="43.71249" lon="0.82541">
        <ele>195.28</ele>
        <time>2020-12-09T10:08:38Z</time>
      </trkpt>
      <trkpt lat="43.71255" lon="0.82524">
        <ele>195.28</ele>
        <time>2020-12-09T10:08:49Z</time>
      </trkpt>
      <trkpt lat="43.7126" lon="0.82507">
        <ele>195.28</ele>
        <time>2020-12-09T10:08:59Z</time>
      </trkpt>
      <trkpt lat="43.71268" lon="0.82491">
        <ele>195.28</ele>
        <time>2020-12-09T10:09:09Z</time>
      </trkpt>
      <trkpt lat="43.71273" lon="0.82475">
        <ele>193.84</ele>
        <time>2020-12-09T10:09:17Z</time>
      </trkpt>
      <trkpt lat="43.71281" lon="0.8246">
        <ele>193.84</ele>
        <time>2020-12-09T10:09:28Z</time>
      </trkpt>
      <trkpt lat="43.71288" lon="0.82444">
        <ele>193.84</ele>
        <time>2020-12-09T10:09:38Z</time>
      </trkpt>
      <trkpt lat="43.71293" lon="0.82427">
        <ele>193.84</ele>
        <time>2020-12-09T10:09:48Z</time>
      </trkpt>
      <trkpt lat="43.71302" lon="0.82409">
        <ele>193.84</ele>
        <time>2020-12-09T10:09:59Z</time>
      </trkpt>
      <trkpt lat="43.71311" lon="0.82391">
        <ele>193.84</ele>
        <time>2020-12-09T10:10:12Z</time>
      </trkpt>
      <trkpt lat="43.71319" lon="0.82371">
        <ele>193.84</ele>
        <time>2020-12-09T10:10:24Z</time>
      </trkpt>
      <trkpt lat="43.71325" lon="0.82354">
        <ele>193.84</ele>
        <time>2020-12-09T10:10:35Z</time>
      </trkpt>
      <trkpt lat="43.71332" lon="0.82336">
        <ele>193.84</ele>
        <time>2020-12-09T10:10:45Z</time>
      </trkpt>
      <trkpt lat="43.71336" lon="0.82319">
        <ele>193.84</ele>
        <time>2020-12-09T10:10:54Z</time>
      </trkpt>
      <trkpt lat="43.71341" lon="0.82304">
        <ele>193.84</ele>
        <time>2020-12-09T10:11:02Z</time>
      </trkpt>
      <trkpt lat="43.71347" lon="0.82287">
        <ele>193.84</ele>
        <time>2020-12-09T10:11:11Z</time>
      </trkpt>
      <trkpt lat="43.71352" lon="0.82273">
        <ele>193.84</ele>
        <time>2020-12-09T10:11:19Z</time>
      </trkpt>
      <trkpt lat="43.7136" lon="0.82256">
        <ele>193.84</ele>
        <time>2020-12-09T10:11:28Z</time>
      </trkpt>
      <trkpt lat="43.71367" lon="0.82242">
        <ele>193.84</ele>
        <time>2020-12-09T10:11:36Z</time>
      </trkpt>
      <trkpt lat="43.71375" lon="0.82227">
        <ele>193.84</ele>
        <time>2020-12-09T10:11:45Z</time>
      </trkpt>
      <trkpt lat="43.71382" lon="0.82215">
        <ele>193.84</ele>
        <time>2020-12-09T10:11:53Z</time>
      </trkpt>
      <trkpt lat="43.71389" lon="0.82203">
        <ele>193.84</ele>
        <time>2020-12-09T10:12:03Z</time>
      </trkpt>
      <trkpt lat="43.71396" lon="0.82191">
        <ele>193.84</ele>
        <time>2020-12-09T10:12:12Z</time>
      </trkpt>
      <trkpt lat="43.71404" lon="0.82177">
        <ele>193.84</ele>
        <time>2020-12-09T10:12:22Z</time>
      </trkpt>
      <trkpt lat="43.71412" lon="0.82165">
        <ele>193.84</ele>
        <time>2020-12-09T10:12:32Z</time>
      </trkpt>
      <trkpt lat="43.71419" lon="0.82153">
        <ele>193.84</ele>
        <time>2020-12-09T10:12:40Z</time>
      </trkpt>
      <trkpt lat="43.71427" lon="0.82141">
        <ele>193.84</ele>
        <time>2020-12-09T10:12:49Z</time>
      </trkpt>
      <trkpt lat="43.71434" lon="0.82128">
        <ele>193.84</ele>
        <time>2020-12-09T10:12:57Z</time>
      </trkpt>
      <trkpt lat="43.71442" lon="0.82116">
        <ele>193.84</ele>
        <time>2020-12-09T10:13:06Z</time>
      </trkpt>
      <trkpt lat="43.7145" lon="0.82104">
        <ele>193.84</ele>
        <time>2020-12-09T10:13:15Z</time>
      </trkpt>
      <trkpt lat="43.71457" lon="0.8209">
        <ele>193.84</ele>
        <time>2020-12-09T10:13:25Z</time>
      </trkpt>
      <trkpt lat="43.71464" lon="0.82078">
        <ele>193.84</ele>
        <time>2020-12-09T10:13:33Z</time>
      </trkpt>
      <trkpt lat="43.71472" lon="0.82067">
        <ele>194.8</ele>
        <time>2020-12-09T10:13:41Z</time>
      </trkpt>
      <trkpt lat="43.71478" lon="0.82054">
        <ele>195.77</ele>
        <time>2020-12-09T10:13:50Z</time>
      </trkpt>
      <trkpt lat="43.71485" lon="0.82043">
        <ele>195.77</ele>
        <time>2020-12-09T10:13:58Z</time>
      </trkpt>
      <trkpt lat="43.71493" lon="0.82032">
        <ele>195.77</ele>
        <time>2020-12-09T10:14:06Z</time>
      </trkpt>
      <trkpt lat="43.71501" lon="0.82021">
        <ele>196.25</ele>
        <time>2020-12-09T10:14:14Z</time>
      </trkpt>
      <trkpt lat="43.71508" lon="0.8201">
        <ele>196.25</ele>
        <time>2020-12-09T10:14:21Z</time>
      </trkpt>
      <trkpt lat="43.71515" lon="0.81999">
        <ele>196.73</ele>
        <time>2020-12-09T10:14:28Z</time>
      </trkpt>
      <trkpt lat="43.71521" lon="0.81989">
        <ele>196.73</ele>
        <time>2020-12-09T10:14:35Z</time>
      </trkpt>
      <trkpt lat="43.71528" lon="0.81979">
        <ele>196.73</ele>
        <time>2020-12-09T10:14:43Z</time>
      </trkpt>
      <trkpt lat="43.71535" lon="0.81967">
        <ele>197.21</ele>
        <time>2020-12-09T10:14:52Z</time>
      </trkpt>
      <trkpt lat="43.71544" lon="0.81956">
        <ele>197.21</ele>
        <time>2020-12-09T10:15:01Z</time>
      </trkpt>
      <trkpt lat="43.71552" lon="0.81945">
        <ele>197.69</ele>
        <time>2020-12-09T10:15:09Z</time>
      </trkpt>
      <trkpt lat="43.7156" lon="0.81933">
        <ele>196.73</ele>
        <time>2020-12-09T10:15:17Z</time>
      </trkpt>
      <trkpt lat="43.7157" lon="0.81922">
        <ele>196.73</ele>
        <time>2020-12-09T10:15:25Z</time>
      </trkpt>
      <trkpt lat="43.71579" lon="0.81914">
        <ele>196.25</ele>
        <time>2020-12-09T10:15:32Z</time>
      </trkpt>
      <trkpt lat="43.71588" lon="0.81908">
        <ele>195.77</ele>
        <time>2020-12-09T10:15:40Z</time>
      </trkpt>
      <trkpt lat="43.71598" lon="0.819">
        <ele>195.77</ele>
        <time>2020-12-09T10:15:48Z</time>
      </trkpt>
      <trkpt lat="43.71606" lon="0.81894">
        <ele>195.77</ele>
        <time>2020-12-09T10:15:55Z</time>
      </trkpt>
      <trkpt lat="43.71615" lon="0.81886">
        <ele>195.28</ele>
        <time>2020-12-09T10:16:03Z</time>
      </trkpt>
      <trkpt lat="43.71624" lon="0.81877">
        <ele>195.28</ele>
        <time>2020-12-09T10:16:11Z</time>
      </trkpt>
      <trkpt lat="43.71634" lon="0.81868">
        <ele>195.28</ele>
        <time>2020-12-09T10:16:19Z</time>
      </trkpt>
      <trkpt lat="43.71645" lon="0.81859">
        <ele>195.28</ele>
        <time>2020-12-09T10:16:29Z</time>
      </trkpt>
      <trkpt lat="43.71654" lon="0.8185">
        <ele>195.28</ele>
        <time>2020-12-09T10:16:39Z</time>
      </trkpt>
      <trkpt lat="43.71663" lon="0.81841">
        <ele>195.28</ele>
        <time>2020-12-09T10:16:50Z</time>
      </trkpt>
      <trkpt lat="43.71673" lon="0.81833">
        <ele>195.28</ele>
        <time>2020-12-09T10:16:59Z</time>
      </trkpt>
      <trkpt lat="43.7168" lon="0.81817">
        <ele>195.77</ele>
        <time>2020-12-09T10:18:58Z</time>
      </trkpt>
      <trkpt lat="43.71689" lon="0.81809">
        <ele>195.77</ele>
        <time>2020-12-09T10:19:24Z</time>
      </trkpt>
      <trkpt lat="43.71698" lon="0.81799">
        <ele>195.77</ele>
        <time>2020-12-09T10:19:34Z</time>
      </trkpt>
      <trkpt lat="43.71706" lon="0.81788">
        <ele>195.77</ele>
        <time>2020-12-09T10:19:43Z</time>
      </trkpt>
      <trkpt lat="43.71714" lon="0.81777">
        <ele>195.77</ele>
        <time>2020-12-09T10:19:53Z</time>
      </trkpt>
      <trkpt lat="43.71724" lon="0.81766">
        <ele>195.77</ele>
        <time>2020-12-09T10:20:03Z</time>
      </trkpt>
      <trkpt lat="43.71733" lon="0.81754">
        <ele>197.21</ele>
        <time>2020-12-09T10:20:12Z</time>
      </trkpt>
      <trkpt lat="43.7174" lon="0.81744">
        <ele>197.21</ele>
        <time>2020-12-09T10:20:20Z</time>
      </trkpt>
      <trkpt lat="43.71748" lon="0.81735">
        <ele>197.21</ele>
        <time>2020-12-09T10:20:28Z</time>
      </trkpt>
      <trkpt lat="43.71756" lon="0.81723">
        <ele>197.21</ele>
        <time>2020-12-09T10:20:37Z</time>
      </trkpt>
      <trkpt lat="43.71763" lon="0.81711">
        <ele>197.21</ele>
        <time>2020-12-09T10:20:46Z</time>
      </trkpt>
      <trkpt lat="43.71771" lon="0.81701">
        <ele>197.21</ele>
        <time>2020-12-09T10:20:56Z</time>
      </trkpt>
      <trkpt lat="43.71774" lon="0.81697">
        <ele>196.73</ele>
        <time>2020-12-09T10:21:59Z</time>
      </trkpt>
      <trkpt lat="43.71769" lon="0.81691">
        <ele>198.65</ele>
        <time>2020-12-09T10:22:28Z</time>
      </trkpt>
      <trkpt lat="43.71771" lon="0.81692">
        <ele>198.65</ele>
        <time>2020-12-09T10:22:58Z</time>
      </trkpt>
      <trkpt lat="43.71775" lon="0.817">
        <ele>198.65</ele>
        <time>2020-12-09T10:23:11Z</time>
      </trkpt>
      <trkpt lat="43.71782" lon="0.81686">
        <ele>198.65</ele>
        <time>2020-12-09T10:23:29Z</time>
      </trkpt>
      <trkpt lat="43.71788" lon="0.81673">
        <ele>198.65</ele>
        <time>2020-12-09T10:23:40Z</time>
      </trkpt>
      <trkpt lat="43.71797" lon="0.8166">
        <ele>198.65</ele>
        <time>2020-12-09T10:23:51Z</time>
      </trkpt>
      <trkpt lat="43.71807" lon="0.81646">
        <ele>198.17</ele>
        <time>2020-12-09T10:24:03Z</time>
      </trkpt>
      <trkpt lat="43.71817" lon="0.81634">
        <ele>198.17</ele>
        <time>2020-12-09T10:24:13Z</time>
      </trkpt>
      <trkpt lat="43.71828" lon="0.8162">
        <ele>198.17</ele>
        <time>2020-12-09T10:24:25Z</time>
      </trkpt>
      <trkpt lat="43.71838" lon="0.81605">
        <ele>198.65</ele>
        <time>2020-12-09T10:24:36Z</time>
      </trkpt>
      <trkpt lat="43.71848" lon="0.8159">
        <ele>199.13</ele>
        <time>2020-12-09T10:24:51Z</time>
      </trkpt>
      <trkpt lat="43.71855" lon="0.81576">
        <ele>199.61</ele>
        <time>2020-12-09T10:25:05Z</time>
      </trkpt>
      <trkpt lat="43.71863" lon="0.81566">
        <ele>200.09</ele>
        <time>2020-12-09T10:25:17Z</time>
      </trkpt>
      <trkpt lat="43.71872" lon="0.81556">
        <ele>200.57</ele>
        <time>2020-12-09T10:25:33Z</time>
      </trkpt>
      <trkpt lat="43.7188" lon="0.81543">
        <ele>201.05</ele>
        <time>2020-12-09T10:25:48Z</time>
      </trkpt>
      <trkpt lat="43.71886" lon="0.81532">
        <ele>201.53</ele>
        <time>2020-12-09T10:26:00Z</time>
      </trkpt>
      <trkpt lat="43.71892" lon="0.81518">
        <ele>201.53</ele>
        <time>2020-12-09T10:26:09Z</time>
      </trkpt>
      <trkpt lat="43.71898" lon="0.81503">
        <ele>201.53</ele>
        <time>2020-12-09T10:26:20Z</time>
      </trkpt>
      <trkpt lat="43.71902" lon="0.81487">
        <ele>201.53</ele>
        <time>2020-12-09T10:26:31Z</time>
      </trkpt>
      <trkpt lat="43.71905" lon="0.81475">
        <ele>201.53</ele>
        <time>2020-12-09T10:26:39Z</time>
      </trkpt>
      <trkpt lat="43.71909" lon="0.81461">
        <ele>201.53</ele>
        <time>2020-12-09T10:26:47Z</time>
      </trkpt>
      <trkpt lat="43.71916" lon="0.81448">
        <ele>200.57</ele>
        <time>2020-12-09T10:27:03Z</time>
      </trkpt>
      <trkpt lat="43.71922" lon="0.81436">
        <ele>200.09</ele>
        <time>2020-12-09T10:27:13Z</time>
      </trkpt>
      <trkpt lat="43.71927" lon="0.81423">
        <ele>199.61</ele>
        <time>2020-12-09T10:27:22Z</time>
      </trkpt>
      <trkpt lat="43.71934" lon="0.81414">
        <ele>199.13</ele>
        <time>2020-12-09T10:27:35Z</time>
      </trkpt>
      <trkpt lat="43.71939" lon="0.81401">
        <ele>198.65</ele>
        <time>2020-12-09T10:27:46Z</time>
      </trkpt>
      <trkpt lat="43.71945" lon="0.8139">
        <ele>198.17</ele>
        <time>2020-12-09T10:27:59Z</time>
      </trkpt>
      <trkpt lat="43.7195" lon="0.81376">
        <ele>197.69</ele>
        <time>2020-12-09T10:28:14Z</time>
      </trkpt>
      <trkpt lat="43.7195" lon="0.8137">
        <ele>198.17</ele>
        <time>2020-12-09T10:29:25Z</time>
      </trkpt>
      <trkpt lat="43.71942" lon="0.81362">
        <ele>196.73</ele>
        <time>2020-12-09T10:29:33Z</time>
      </trkpt>
      <trkpt lat="43.71933" lon="0.81356">
        <ele>196.25</ele>
        <time>2020-12-09T10:29:41Z</time>
      </trkpt>
      <trkpt lat="43.71924" lon="0.81351">
        <ele>194.8</ele>
        <time>2020-12-09T10:29:49Z</time>
      </trkpt>
      <trkpt lat="43.71915" lon="0.81346">
        <ele>194.32</ele>
        <time>2020-12-09T10:29:56Z</time>
      </trkpt>
      <trkpt lat="43.71905" lon="0.81341">
        <ele>193.84</ele>
        <time>2020-12-09T10:30:03Z</time>
      </trkpt>
      <trkpt lat="43.71896" lon="0.81335">
        <ele>192.88</ele>
        <time>2020-12-09T10:30:10Z</time>
      </trkpt>
      <trkpt lat="43.71888" lon="0.8133">
        <ele>192.4</ele>
        <time>2020-12-09T10:30:16Z</time>
      </trkpt>
      <trkpt lat="43.7188" lon="0.81326">
        <ele>191.44</ele>
        <time>2020-12-09T10:30:22Z</time>
      </trkpt>
      <trkpt lat="43.71871" lon="0.81322">
        <ele>190.96</ele>
        <time>2020-12-09T10:30:29Z</time>
      </trkpt>
      <trkpt lat="43.71863" lon="0.81318">
        <ele>190</ele>
        <time>2020-12-09T10:30:36Z</time>
      </trkpt>
      <trkpt lat="43.71854" lon="0.81314">
        <ele>189.52</ele>
        <time>2020-12-09T10:30:43Z</time>
      </trkpt>
      <trkpt lat="43.71845" lon="0.81309">
        <ele>188.56</ele>
        <time>2020-12-09T10:30:50Z</time>
      </trkpt>
      <trkpt lat="43.71836" lon="0.81305">
        <ele>187.59</ele>
        <time>2020-12-09T10:30:57Z</time>
      </trkpt>
      <trkpt lat="43.71827" lon="0.813">
        <ele>187.11</ele>
        <time>2020-12-09T10:31:04Z</time>
      </trkpt>
      <trkpt lat="43.71818" lon="0.81296">
        <ele>186.63</ele>
        <time>2020-12-09T10:31:11Z</time>
      </trkpt>
      <trkpt lat="43.71809" lon="0.81291">
        <ele>186.63</ele>
        <time>2020-12-09T10:31:18Z</time>
      </trkpt>
      <trkpt lat="43.718" lon="0.81288">
        <ele>186.15</ele>
        <time>2020-12-09T10:31:26Z</time>
      </trkpt>
      <trkpt lat="43.71791" lon="0.81283">
        <ele>185.19</ele>
        <time>2020-12-09T10:31:35Z</time>
      </trkpt>
      <trkpt lat="43.71781" lon="0.81278">
        <ele>184.71</ele>
        <time>2020-12-09T10:31:43Z</time>
      </trkpt>
      <trkpt lat="43.7177" lon="0.81273">
        <ele>184.23</ele>
        <time>2020-12-09T10:31:51Z</time>
      </trkpt>
      <trkpt lat="43.7176" lon="0.81268">
        <ele>183.75</ele>
        <time>2020-12-09T10:32:00Z</time>
      </trkpt>
      <trkpt lat="43.71749" lon="0.81263">
        <ele>183.75</ele>
        <time>2020-12-09T10:32:08Z</time>
      </trkpt>
      <trkpt lat="43.71739" lon="0.81258">
        <ele>184.23</ele>
        <time>2020-12-09T10:32:16Z</time>
      </trkpt>
      <trkpt lat="43.71728" lon="0.81253">
        <ele>183.75</ele>
        <time>2020-12-09T10:32:24Z</time>
      </trkpt>
      <trkpt lat="43.71717" lon="0.81251">
        <ele>183.75</ele>
        <time>2020-12-09T10:32:32Z</time>
      </trkpt>
      <trkpt lat="43.71707" lon="0.81252">
        <ele>183.27</ele>
        <time>2020-12-09T10:32:40Z</time>
      </trkpt>
      <trkpt lat="43.717" lon="0.81263">
        <ele>183.27</ele>
        <time>2020-12-09T10:32:50Z</time>
      </trkpt>
      <trkpt lat="43.71694" lon="0.81277">
        <ele>183.27</ele>
        <time>2020-12-09T10:33:04Z</time>
      </trkpt>
      <trkpt lat="43.71689" lon="0.81292">
        <ele>183.27</ele>
        <time>2020-12-09T10:33:13Z</time>
      </trkpt>
      <trkpt lat="43.71684" lon="0.81305">
        <ele>185.19</ele>
        <time>2020-12-09T10:33:21Z</time>
      </trkpt>
      <trkpt lat="43.71679" lon="0.81317">
        <ele>185.67</ele>
        <time>2020-12-09T10:33:28Z</time>
      </trkpt>
      <trkpt lat="43.71674" lon="0.81328">
        <ele>186.63</ele>
        <time>2020-12-09T10:33:36Z</time>
      </trkpt>
      <trkpt lat="43.71668" lon="0.81341">
        <ele>187.11</ele>
        <time>2020-12-09T10:33:44Z</time>
      </trkpt>
      <trkpt lat="43.71662" lon="0.81352">
        <ele>187.59</ele>
        <time>2020-12-09T10:33:51Z</time>
      </trkpt>
      <trkpt lat="43.71654" lon="0.81363">
        <ele>188.08</ele>
        <time>2020-12-09T10:34:00Z</time>
      </trkpt>
      <trkpt lat="43.71645" lon="0.81372">
        <ele>188.56</ele>
        <time>2020-12-09T10:34:08Z</time>
      </trkpt>
      <trkpt lat="43.71636" lon="0.81382">
        <ele>188.56</ele>
        <time>2020-12-09T10:34:16Z</time>
      </trkpt>
      <trkpt lat="43.71627" lon="0.81391">
        <ele>188.56</ele>
        <time>2020-12-09T10:34:24Z</time>
      </trkpt>
      <trkpt lat="43.71617" lon="0.814">
        <ele>187.11</ele>
        <time>2020-12-09T10:34:32Z</time>
      </trkpt>
      <trkpt lat="43.71608" lon="0.81407">
        <ele>187.11</ele>
        <time>2020-12-09T10:34:39Z</time>
      </trkpt>
      <trkpt lat="43.71597" lon="0.81413">
        <ele>186.63</ele>
        <time>2020-12-09T10:34:47Z</time>
      </trkpt>
      <trkpt lat="43.71587" lon="0.81418">
        <ele>186.15</ele>
        <time>2020-12-09T10:34:55Z</time>
      </trkpt>
      <trkpt lat="43.71576" lon="0.81421">
        <ele>185.67</ele>
        <time>2020-12-09T10:35:02Z</time>
      </trkpt>
      <trkpt lat="43.71566" lon="0.81421">
        <ele>185.67</ele>
        <time>2020-12-09T10:35:10Z</time>
      </trkpt>
      <trkpt lat="43.71555" lon="0.81419">
        <ele>185.67</ele>
        <time>2020-12-09T10:35:18Z</time>
      </trkpt>
      <trkpt lat="43.71543" lon="0.81419">
        <ele>185.67</ele>
        <time>2020-12-09T10:35:27Z</time>
      </trkpt>
      <trkpt lat="43.71532" lon="0.81423">
        <ele>185.19</ele>
        <time>2020-12-09T10:35:36Z</time>
      </trkpt>
      <trkpt lat="43.71522" lon="0.81429">
        <ele>185.19</ele>
        <time>2020-12-09T10:35:44Z</time>
      </trkpt>
      <trkpt lat="43.71515" lon="0.81439">
        <ele>185.19</ele>
        <time>2020-12-09T10:35:52Z</time>
      </trkpt>
      <trkpt lat="43.71504" lon="0.81449">
        <ele>185.19</ele>
        <time>2020-12-09T10:36:02Z</time>
      </trkpt>
      <trkpt lat="43.71491" lon="0.81455">
        <ele>184.71</ele>
        <time>2020-12-09T10:36:12Z</time>
      </trkpt>
      <trkpt lat="43.71479" lon="0.81456">
        <ele>184.71</ele>
        <time>2020-12-09T10:36:20Z</time>
      </trkpt>
      <trkpt lat="43.71468" lon="0.81456">
        <ele>184.71</ele>
        <time>2020-12-09T10:36:28Z</time>
      </trkpt>
      <trkpt lat="43.71456" lon="0.81455">
        <ele>184.71</ele>
        <time>2020-12-09T10:36:39Z</time>
      </trkpt>
      <trkpt lat="43.71445" lon="0.81456">
        <ele>184.71</ele>
        <time>2020-12-09T10:36:48Z</time>
      </trkpt>
      <trkpt lat="43.71434" lon="0.81457">
        <ele>184.71</ele>
        <time>2020-12-09T10:36:56Z</time>
      </trkpt>
      <trkpt lat="43.71422" lon="0.81458">
        <ele>184.71</ele>
        <time>2020-12-09T10:37:06Z</time>
      </trkpt>
      <trkpt lat="43.71411" lon="0.81459">
        <ele>184.23</ele>
        <time>2020-12-09T10:37:14Z</time>
      </trkpt>
      <trkpt lat="43.71401" lon="0.81462">
        <ele>184.23</ele>
        <time>2020-12-09T10:37:22Z</time>
      </trkpt>
      <trkpt lat="43.71389" lon="0.81463">
        <ele>183.27</ele>
        <time>2020-12-09T10:37:30Z</time>
      </trkpt>
      <trkpt lat="43.71377" lon="0.81463">
        <ele>182.79</ele>
        <time>2020-12-09T10:37:38Z</time>
      </trkpt>
      <trkpt lat="43.71367" lon="0.81463">
        <ele>182.31</ele>
        <time>2020-12-09T10:37:45Z</time>
      </trkpt>
      <trkpt lat="43.71356" lon="0.81463">
        <ele>182.31</ele>
        <time>2020-12-09T10:37:52Z</time>
      </trkpt>
      <trkpt lat="43.71345" lon="0.81465">
        <ele>182.31</ele>
        <time>2020-12-09T10:37:59Z</time>
      </trkpt>
      <trkpt lat="43.71337" lon="0.81468">
        <ele>181.83</ele>
        <time>2020-12-09T10:38:06Z</time>
      </trkpt>
      <trkpt lat="43.71327" lon="0.8147">
        <ele>181.83</ele>
        <time>2020-12-09T10:38:14Z</time>
      </trkpt>
      <trkpt lat="43.71315" lon="0.81473">
        <ele>181.35</ele>
        <time>2020-12-09T10:38:22Z</time>
      </trkpt>
      <trkpt lat="43.71304" lon="0.81473">
        <ele>181.35</ele>
        <time>2020-12-09T10:38:30Z</time>
      </trkpt>
      <trkpt lat="43.71295" lon="0.81471">
        <ele>181.35</ele>
        <time>2020-12-09T10:38:37Z</time>
      </trkpt>
      <trkpt lat="43.71284" lon="0.81468">
        <ele>181.35</ele>
        <time>2020-12-09T10:38:45Z</time>
      </trkpt>
      <trkpt lat="43.71274" lon="0.81465">
        <ele>181.35</ele>
        <time>2020-12-09T10:38:53Z</time>
      </trkpt>
      <trkpt lat="43.71265" lon="0.8146">
        <ele>181.35</ele>
        <time>2020-12-09T10:39:00Z</time>
      </trkpt>
      <trkpt lat="43.71254" lon="0.81457">
        <ele>181.35</ele>
        <time>2020-12-09T10:39:07Z</time>
      </trkpt>
      <trkpt lat="43.71244" lon="0.81452">
        <ele>181.35</ele>
        <time>2020-12-09T10:39:14Z</time>
      </trkpt>
      <trkpt lat="43.71236" lon="0.8145">
        <ele>182.79</ele>
        <time>2020-12-09T10:39:21Z</time>
      </trkpt>
      <trkpt lat="43.71227" lon="0.81448">
        <ele>182.79</ele>
        <time>2020-12-09T10:39:28Z</time>
      </trkpt>
      <trkpt lat="43.71217" lon="0.81446">
        <ele>183.27</ele>
        <time>2020-12-09T10:39:36Z</time>
      </trkpt>
      <trkpt lat="43.71207" lon="0.81443">
        <ele>183.27</ele>
        <time>2020-12-09T10:39:44Z</time>
      </trkpt>
      <trkpt lat="43.71197" lon="0.81442">
        <ele>183.75</ele>
        <time>2020-12-09T10:39:53Z</time>
      </trkpt>
      <trkpt lat="43.71187" lon="0.81441">
        <ele>181.35</ele>
        <time>2020-12-09T10:40:01Z</time>
      </trkpt>
      <trkpt lat="43.71177" lon="0.81442">
        <ele>180.87</ele>
        <time>2020-12-09T10:40:09Z</time>
      </trkpt>
      <trkpt lat="43.71166" lon="0.81441">
        <ele>180.38</ele>
        <time>2020-12-09T10:40:17Z</time>
      </trkpt>
      <trkpt lat="43.71155" lon="0.81441">
        <ele>180.38</ele>
        <time>2020-12-09T10:40:25Z</time>
      </trkpt>
      <trkpt lat="43.71145" lon="0.8144">
        <ele>179.9</ele>
        <time>2020-12-09T10:40:32Z</time>
      </trkpt>
      <trkpt lat="43.71135" lon="0.8144">
        <ele>179.42</ele>
        <time>2020-12-09T10:40:39Z</time>
      </trkpt>
      <trkpt lat="43.71126" lon="0.81439">
        <ele>179.42</ele>
        <time>2020-12-09T10:40:46Z</time>
      </trkpt>
      <trkpt lat="43.71116" lon="0.81439">
        <ele>179.42</ele>
        <time>2020-12-09T10:40:54Z</time>
      </trkpt>
      <trkpt lat="43.71108" lon="0.81445">
        <ele>179.42</ele>
        <time>2020-12-09T10:41:10Z</time>
      </trkpt>
      <trkpt lat="43.71103" lon="0.81457">
        <ele>180.87</ele>
        <time>2020-12-09T10:41:19Z</time>
      </trkpt>
      <trkpt lat="43.71098" lon="0.81469">
        <ele>181.83</ele>
        <time>2020-12-09T10:41:28Z</time>
      </trkpt>
      <trkpt lat="43.71092" lon="0.8148">
        <ele>182.31</ele>
        <time>2020-12-09T10:41:36Z</time>
      </trkpt>
      <trkpt lat="43.71086" lon="0.8149">
        <ele>182.31</ele>
        <time>2020-12-09T10:41:44Z</time>
      </trkpt>
      <trkpt lat="43.71079" lon="0.815">
        <ele>182.31</ele>
        <time>2020-12-09T10:41:51Z</time>
      </trkpt>
      <trkpt lat="43.71073" lon="0.81511">
        <ele>182.31</ele>
        <time>2020-12-09T10:41:59Z</time>
      </trkpt>
      <trkpt lat="43.71066" lon="0.81522">
        <ele>182.31</ele>
        <time>2020-12-09T10:42:07Z</time>
      </trkpt>
      <trkpt lat="43.71059" lon="0.81534">
        <ele>182.31</ele>
        <time>2020-12-09T10:42:15Z</time>
      </trkpt>
      <trkpt lat="43.71053" lon="0.81545">
        <ele>182.31</ele>
        <time>2020-12-09T10:42:23Z</time>
      </trkpt>
      <trkpt lat="43.71047" lon="0.81555">
        <ele>182.31</ele>
        <time>2020-12-09T10:42:30Z</time>
      </trkpt>
      <trkpt lat="43.71041" lon="0.81565">
        <ele>182.31</ele>
        <time>2020-12-09T10:42:37Z</time>
      </trkpt>
      <trkpt lat="43.71033" lon="0.81573">
        <ele>182.31</ele>
        <time>2020-12-09T10:42:44Z</time>
      </trkpt>
      <trkpt lat="43.71025" lon="0.81582">
        <ele>182.31</ele>
        <time>2020-12-09T10:42:51Z</time>
      </trkpt>
      <trkpt lat="43.71018" lon="0.81591">
        <ele>182.31</ele>
        <time>2020-12-09T10:42:58Z</time>
      </trkpt>
      <trkpt lat="43.71011" lon="0.816">
        <ele>182.31</ele>
        <time>2020-12-09T10:43:05Z</time>
      </trkpt>
      <trkpt lat="43.71004" lon="0.81609">
        <ele>180.87</ele>
        <time>2020-12-09T10:43:12Z</time>
      </trkpt>
      <trkpt lat="43.70997" lon="0.81618">
        <ele>179.42</ele>
        <time>2020-12-09T10:43:19Z</time>
      </trkpt>
      <trkpt lat="43.70991" lon="0.81627">
        <ele>179.42</ele>
        <time>2020-12-09T10:43:26Z</time>
      </trkpt>
      <trkpt lat="43.70985" lon="0.81638">
        <ele>178.94</ele>
        <time>2020-12-09T10:43:33Z</time>
      </trkpt>
      <trkpt lat="43.70979" lon="0.81648">
        <ele>178.94</ele>
        <time>2020-12-09T10:43:40Z</time>
      </trkpt>
      <trkpt lat="43.70972" lon="0.81658">
        <ele>178.46</ele>
        <time>2020-12-09T10:43:48Z</time>
      </trkpt>
      <trkpt lat="43.70965" lon="0.81667">
        <ele>177.5</ele>
        <time>2020-12-09T10:43:55Z</time>
      </trkpt>
      <trkpt lat="43.70958" lon="0.81676">
        <ele>177.02</ele>
        <time>2020-12-09T10:44:02Z</time>
      </trkpt>
      <trkpt lat="43.7095" lon="0.81687">
        <ele>177.02</ele>
        <time>2020-12-09T10:44:10Z</time>
      </trkpt>
      <trkpt lat="43.70943" lon="0.81699">
        <ele>176.54</ele>
        <time>2020-12-09T10:44:17Z</time>
      </trkpt>
      <trkpt lat="43.70936" lon="0.81711">
        <ele>176.54</ele>
        <time>2020-12-09T10:44:25Z</time>
      </trkpt>
      <trkpt lat="43.7093" lon="0.81723">
        <ele>176.54</ele>
        <time>2020-12-09T10:44:35Z</time>
      </trkpt>
      <trkpt lat="43.70926" lon="0.81737">
        <ele>176.54</ele>
        <time>2020-12-09T10:44:48Z</time>
      </trkpt>
      <trkpt lat="43.70921" lon="0.8175">
        <ele>176.54</ele>
        <time>2020-12-09T10:44:56Z</time>
      </trkpt>
      <trkpt lat="43.70916" lon="0.81764">
        <ele>176.06</ele>
        <time>2020-12-09T10:45:04Z</time>
      </trkpt>
      <trkpt lat="43.70909" lon="0.81776">
        <ele>176.06</ele>
        <time>2020-12-09T10:45:12Z</time>
      </trkpt>
      <trkpt lat="43.709" lon="0.81787">
        <ele>176.06</ele>
        <time>2020-12-09T10:45:21Z</time>
      </trkpt>
      <trkpt lat="43.7089" lon="0.81799">
        <ele>176.06</ele>
        <time>2020-12-09T10:45:30Z</time>
      </trkpt>
      <trkpt lat="43.70881" lon="0.81811">
        <ele>176.06</ele>
        <time>2020-12-09T10:45:38Z</time>
      </trkpt>
      <trkpt lat="43.70872" lon="0.81823">
        <ele>176.06</ele>
        <time>2020-12-09T10:45:46Z</time>
      </trkpt>
      <trkpt lat="43.70863" lon="0.8183">
        <ele>176.06</ele>
        <time>2020-12-09T10:45:54Z</time>
      </trkpt>
      <trkpt lat="43.70852" lon="0.81835">
        <ele>175.58</ele>
        <time>2020-12-09T10:46:03Z</time>
      </trkpt>
      <trkpt lat="43.7084" lon="0.8184">
        <ele>175.58</ele>
        <time>2020-12-09T10:46:11Z</time>
      </trkpt>
      <trkpt lat="43.7083" lon="0.81845">
        <ele>175.58</ele>
        <time>2020-12-09T10:46:19Z</time>
      </trkpt>
      <trkpt lat="43.70822" lon="0.81854">
        <ele>175.58</ele>
        <time>2020-12-09T10:46:28Z</time>
      </trkpt>
      <trkpt lat="43.70815" lon="0.81865">
        <ele>175.58</ele>
        <time>2020-12-09T10:46:36Z</time>
      </trkpt>
      <trkpt lat="43.70808" lon="0.81875">
        <ele>175.58</ele>
        <time>2020-12-09T10:46:43Z</time>
      </trkpt>
      <trkpt lat="43.70801" lon="0.81887">
        <ele>175.58</ele>
        <time>2020-12-09T10:46:51Z</time>
      </trkpt>
      <trkpt lat="43.70794" lon="0.819">
        <ele>175.58</ele>
        <time>2020-12-09T10:46:59Z</time>
      </trkpt>
      <trkpt lat="43.70788" lon="0.81911">
        <ele>175.58</ele>
        <time>2020-12-09T10:47:07Z</time>
      </trkpt>
      <trkpt lat="43.70781" lon="0.81922">
        <ele>175.58</ele>
        <time>2020-12-09T10:47:14Z</time>
      </trkpt>
      <trkpt lat="43.70775" lon="0.81934">
        <ele>175.1</ele>
        <time>2020-12-09T10:47:21Z</time>
      </trkpt>
      <trkpt lat="43.70768" lon="0.81945">
        <ele>174.62</ele>
        <time>2020-12-09T10:47:29Z</time>
      </trkpt>
      <trkpt lat="43.7076" lon="0.81957">
        <ele>174.62</ele>
        <time>2020-12-09T10:47:37Z</time>
      </trkpt>
      <trkpt lat="43.70753" lon="0.81968">
        <ele>174.14</ele>
        <time>2020-12-09T10:47:44Z</time>
      </trkpt>
      <trkpt lat="43.70747" lon="0.81979">
        <ele>174.14</ele>
        <time>2020-12-09T10:47:51Z</time>
      </trkpt>
      <trkpt lat="43.70741" lon="0.81989">
        <ele>174.14</ele>
        <time>2020-12-09T10:47:58Z</time>
      </trkpt>
      <trkpt lat="43.70734" lon="0.82001">
        <ele>173.17</ele>
        <time>2020-12-09T10:48:06Z</time>
      </trkpt>
      <trkpt lat="43.70727" lon="0.82012">
        <ele>172.69</ele>
        <time>2020-12-09T10:48:14Z</time>
      </trkpt>
      <trkpt lat="43.70721" lon="0.82023">
        <ele>172.69</ele>
        <time>2020-12-09T10:48:21Z</time>
      </trkpt>
      <trkpt lat="43.70713" lon="0.82036">
        <ele>172.21</ele>
        <time>2020-12-09T10:48:29Z</time>
      </trkpt>
      <trkpt lat="43.70706" lon="0.82047">
        <ele>172.21</ele>
        <time>2020-12-09T10:48:36Z</time>
      </trkpt>
      <trkpt lat="43.70699" lon="0.82058">
        <ele>172.21</ele>
        <time>2020-12-09T10:48:44Z</time>
      </trkpt>
      <trkpt lat="43.70692" lon="0.82072">
        <ele>171.73</ele>
        <time>2020-12-09T10:48:52Z</time>
      </trkpt>
      <trkpt lat="43.70685" lon="0.82083">
        <ele>171.25</ele>
        <time>2020-12-09T10:48:59Z</time>
      </trkpt>
      <trkpt lat="43.70678" lon="0.82094">
        <ele>171.25</ele>
        <time>2020-12-09T10:49:06Z</time>
      </trkpt>
      <trkpt lat="43.70672" lon="0.82105">
        <ele>170.77</ele>
        <time>2020-12-09T10:49:14Z</time>
      </trkpt>
      <trkpt lat="43.70666" lon="0.82116">
        <ele>170.29</ele>
        <time>2020-12-09T10:49:22Z</time>
      </trkpt>
      <trkpt lat="43.70659" lon="0.82127">
        <ele>169.81</ele>
        <time>2020-12-09T10:49:30Z</time>
      </trkpt>
      <trkpt lat="43.70653" lon="0.82139">
        <ele>169.33</ele>
        <time>2020-12-09T10:49:37Z</time>
      </trkpt>
      <trkpt lat="43.70647" lon="0.8215">
        <ele>169.33</ele>
        <time>2020-12-09T10:49:44Z</time>
      </trkpt>
      <trkpt lat="43.70641" lon="0.82161">
        <ele>169.33</ele>
        <time>2020-12-09T10:49:51Z</time>
      </trkpt>
      <trkpt lat="43.70635" lon="0.82172">
        <ele>168.85</ele>
        <time>2020-12-09T10:49:58Z</time>
      </trkpt>
      <trkpt lat="43.70628" lon="0.82185">
        <ele>168.85</ele>
        <time>2020-12-09T10:50:07Z</time>
      </trkpt>
      <trkpt lat="43.70621" lon="0.82197">
        <ele>168.37</ele>
        <time>2020-12-09T10:50:15Z</time>
      </trkpt>
      <trkpt lat="43.70615" lon="0.82209">
        <ele>168.37</ele>
        <time>2020-12-09T10:50:23Z</time>
      </trkpt>
      <trkpt lat="43.70608" lon="0.82222">
        <ele>168.37</ele>
        <time>2020-12-09T10:50:31Z</time>
      </trkpt>
      <trkpt lat="43.70602" lon="0.82233">
        <ele>168.37</ele>
        <time>2020-12-09T10:50:38Z</time>
      </trkpt>
      <trkpt lat="43.70596" lon="0.82243">
        <ele>168.37</ele>
        <time>2020-12-09T10:50:45Z</time>
      </trkpt>
      <trkpt lat="43.7059" lon="0.82256">
        <ele>169.81</ele>
        <time>2020-12-09T10:50:53Z</time>
      </trkpt>
      <trkpt lat="43.70584" lon="0.82268">
        <ele>169.81</ele>
        <time>2020-12-09T10:51:01Z</time>
      </trkpt>
      <trkpt lat="43.70577" lon="0.8228">
        <ele>169.81</ele>
        <time>2020-12-09T10:51:08Z</time>
      </trkpt>
      <trkpt lat="43.7057" lon="0.82292">
        <ele>169.81</ele>
        <time>2020-12-09T10:51:16Z</time>
      </trkpt>
      <trkpt lat="43.70564" lon="0.82304">
        <ele>169.81</ele>
        <time>2020-12-09T10:51:23Z</time>
      </trkpt>
      <trkpt lat="43.70556" lon="0.82316">
        <ele>169.81</ele>
        <time>2020-12-09T10:51:31Z</time>
      </trkpt>
      <trkpt lat="43.7055" lon="0.82329">
        <ele>169.81</ele>
        <time>2020-12-09T10:51:40Z</time>
      </trkpt>
      <trkpt lat="43.70543" lon="0.82344">
        <ele>169.33</ele>
        <time>2020-12-09T10:51:51Z</time>
      </trkpt>
      <trkpt lat="43.70535" lon="0.8236">
        <ele>169.33</ele>
        <time>2020-12-09T10:52:03Z</time>
      </trkpt>
      <trkpt lat="43.70527" lon="0.82377">
        <ele>169.33</ele>
        <time>2020-12-09T10:52:13Z</time>
      </trkpt>
      <trkpt lat="43.70519" lon="0.82392">
        <ele>169.33</ele>
        <time>2020-12-09T10:52:22Z</time>
      </trkpt>
      <trkpt lat="43.70511" lon="0.82406">
        <ele>169.33</ele>
        <time>2020-12-09T10:52:31Z</time>
      </trkpt>
      <trkpt lat="43.70505" lon="0.82418">
        <ele>169.33</ele>
        <time>2020-12-09T10:52:39Z</time>
      </trkpt>
      <trkpt lat="43.70497" lon="0.82433">
        <ele>169.33</ele>
        <time>2020-12-09T10:52:48Z</time>
      </trkpt>
      <trkpt lat="43.70489" lon="0.82448">
        <ele>169.33</ele>
        <time>2020-12-09T10:52:56Z</time>
      </trkpt>
      <trkpt lat="43.70482" lon="0.82462">
        <ele>169.33</ele>
        <time>2020-12-09T10:53:03Z</time>
      </trkpt>
      <trkpt lat="43.70476" lon="0.82475">
        <ele>168.85</ele>
        <time>2020-12-09T10:53:11Z</time>
      </trkpt>
      <trkpt lat="43.7047" lon="0.82488">
        <ele>168.85</ele>
        <time>2020-12-09T10:53:20Z</time>
      </trkpt>
      <trkpt lat="43.70464" lon="0.825">
        <ele>168.85</ele>
        <time>2020-12-09T10:53:28Z</time>
      </trkpt>
      <trkpt lat="43.70458" lon="0.82513">
        <ele>168.85</ele>
        <time>2020-12-09T10:53:36Z</time>
      </trkpt>
      <trkpt lat="43.70452" lon="0.82526">
        <ele>168.85</ele>
        <time>2020-12-09T10:53:44Z</time>
      </trkpt>
      <trkpt lat="43.70443" lon="0.82535">
        <ele>168.85</ele>
        <time>2020-12-09T10:53:51Z</time>
      </trkpt>
      <trkpt lat="43.70433" lon="0.82537">
        <ele>168.85</ele>
        <time>2020-12-09T10:53:58Z</time>
      </trkpt>
      <trkpt lat="43.70423" lon="0.82533">
        <ele>169.33</ele>
        <time>2020-12-09T10:54:05Z</time>
      </trkpt>
      <trkpt lat="43.70413" lon="0.82529">
        <ele>170.29</ele>
        <time>2020-12-09T10:54:13Z</time>
      </trkpt>
      <trkpt lat="43.70404" lon="0.82523">
        <ele>171.25</ele>
        <time>2020-12-09T10:54:21Z</time>
      </trkpt>
      <trkpt lat="43.70395" lon="0.82519">
        <ele>171.73</ele>
        <time>2020-12-09T10:54:28Z</time>
      </trkpt>
      <trkpt lat="43.70385" lon="0.82513">
        <ele>173.66</ele>
        <time>2020-12-09T10:54:36Z</time>
      </trkpt>
      <trkpt lat="43.70375" lon="0.82508">
        <ele>174.14</ele>
        <time>2020-12-09T10:54:43Z</time>
      </trkpt>
      <trkpt lat="43.70366" lon="0.82504">
        <ele>174.62</ele>
        <time>2020-12-09T10:54:51Z</time>
      </trkpt>
      <trkpt lat="43.70357" lon="0.825">
        <ele>172.21</ele>
        <time>2020-12-09T10:55:18Z</time>
      </trkpt>
      <trkpt lat="43.70348" lon="0.82494">
        <ele>171.25</ele>
        <time>2020-12-09T10:55:25Z</time>
      </trkpt>
      <trkpt lat="43.70339" lon="0.82489">
        <ele>169.81</ele>
        <time>2020-12-09T10:55:32Z</time>
      </trkpt>
      <trkpt lat="43.7033" lon="0.82484">
        <ele>168.85</ele>
        <time>2020-12-09T10:55:39Z</time>
      </trkpt>
      <trkpt lat="43.7032" lon="0.82478">
        <ele>167.89</ele>
        <time>2020-12-09T10:55:46Z</time>
      </trkpt>
      <trkpt lat="43.70311" lon="0.82473">
        <ele>166.93</ele>
        <time>2020-12-09T10:55:53Z</time>
      </trkpt>
      <trkpt lat="43.70302" lon="0.82469">
        <ele>165.96</ele>
        <time>2020-12-09T10:56:00Z</time>
      </trkpt>
      <trkpt lat="43.70292" lon="0.82464">
        <ele>164.52</ele>
        <time>2020-12-09T10:56:08Z</time>
      </trkpt>
      <trkpt lat="43.70283" lon="0.82459">
        <ele>163.08</ele>
        <time>2020-12-09T10:56:17Z</time>
      </trkpt>
      <trkpt lat="43.70274" lon="0.82455">
        <ele>162.12</ele>
        <time>2020-12-09T10:56:26Z</time>
      </trkpt>
      <trkpt lat="43.70264" lon="0.8245">
        <ele>161.16</ele>
        <time>2020-12-09T10:56:36Z</time>
      </trkpt>
      <trkpt lat="43.70255" lon="0.82445">
        <ele>160.2</ele>
        <time>2020-12-09T10:56:44Z</time>
      </trkpt>
      <trkpt lat="43.70246" lon="0.82441">
        <ele>158.75</ele>
        <time>2020-12-09T10:56:51Z</time>
      </trkpt>
      <trkpt lat="43.70237" lon="0.82437">
        <ele>157.31</ele>
        <time>2020-12-09T10:56:58Z</time>
      </trkpt>
      <trkpt lat="43.70228" lon="0.82431">
        <ele>156.35</ele>
        <time>2020-12-09T10:57:05Z</time>
      </trkpt>
      <trkpt lat="43.70218" lon="0.82426">
        <ele>154.91</ele>
        <time>2020-12-09T10:57:13Z</time>
      </trkpt>
      <trkpt lat="43.70208" lon="0.82424">
        <ele>153.47</ele>
        <time>2020-12-09T10:57:21Z</time>
      </trkpt>
      <trkpt lat="43.70197" lon="0.82421">
        <ele>152.03</ele>
        <time>2020-12-09T10:57:30Z</time>
      </trkpt>
      <trkpt lat="43.70184" lon="0.82417">
        <ele>150.58</ele>
        <time>2020-12-09T10:57:39Z</time>
      </trkpt>
      <trkpt lat="43.70173" lon="0.82412">
        <ele>149.62</ele>
        <time>2020-12-09T10:57:46Z</time>
      </trkpt>
      <trkpt lat="43.70163" lon="0.82407">
        <ele>148.18</ele>
        <time>2020-12-09T10:57:54Z</time>
      </trkpt>
      <trkpt lat="43.70154" lon="0.82404">
        <ele>146.74</ele>
        <time>2020-12-09T10:58:01Z</time>
      </trkpt>
      <trkpt lat="43.70143" lon="0.824">
        <ele>145.78</ele>
        <time>2020-12-09T10:58:09Z</time>
      </trkpt>
      <trkpt lat="43.70133" lon="0.82396">
        <ele>144.34</ele>
        <time>2020-12-09T10:58:17Z</time>
      </trkpt>
      <trkpt lat="43.70123" lon="0.8239">
        <ele>142.89</ele>
        <time>2020-12-09T10:58:25Z</time>
      </trkpt>
      <trkpt lat="43.70112" lon="0.82383">
        <ele>142.41</ele>
        <time>2020-12-09T10:58:33Z</time>
      </trkpt>
      <trkpt lat="43.70101" lon="0.82377">
        <ele>140.97</ele>
        <time>2020-12-09T10:58:40Z</time>
      </trkpt>
      <trkpt lat="43.70091" lon="0.8237">
        <ele>140.01</ele>
        <time>2020-12-09T10:58:47Z</time>
      </trkpt>
      <trkpt lat="43.70082" lon="0.82364">
        <ele>139.53</ele>
        <time>2020-12-09T10:58:54Z</time>
      </trkpt>
      <trkpt lat="43.70072" lon="0.82358">
        <ele>138.09</ele>
        <time>2020-12-09T10:59:02Z</time>
      </trkpt>
      <trkpt lat="43.70062" lon="0.82353">
        <ele>136.64</ele>
        <time>2020-12-09T10:59:10Z</time>
      </trkpt>
      <trkpt lat="43.70052" lon="0.82348">
        <ele>135.2</ele>
        <time>2020-12-09T10:59:18Z</time>
      </trkpt>
      <trkpt lat="43.70042" lon="0.82342">
        <ele>134.24</ele>
        <time>2020-12-09T10:59:26Z</time>
      </trkpt>
      <trkpt lat="43.70032" lon="0.82334">
        <ele>133.76</ele>
        <time>2020-12-09T10:59:34Z</time>
      </trkpt>
      <trkpt lat="43.70021" lon="0.82327">
        <ele>133.28</ele>
        <time>2020-12-09T10:59:42Z</time>
      </trkpt>
      <trkpt lat="43.70011" lon="0.8232">
        <ele>132.8</ele>
        <time>2020-12-09T10:59:50Z</time>
      </trkpt>
      <trkpt lat="43.7" lon="0.82314">
        <ele>132.8</ele>
        <time>2020-12-09T11:00:01Z</time>
      </trkpt>
      <trkpt lat="43.69987" lon="0.82306">
        <ele>132.8</ele>
        <time>2020-12-09T11:00:16Z</time>
      </trkpt>
      <trkpt lat="43.69978" lon="0.82299">
        <ele>134.24</ele>
        <time>2020-12-09T11:00:26Z</time>
      </trkpt>
      <trkpt lat="43.69974" lon="0.823">
        <ele>134.24</ele>
        <time>2020-12-09T11:01:36Z</time>
      </trkpt>
      <trkpt lat="43.69966" lon="0.82293">
        <ele>135.2</ele>
        <time>2020-12-09T11:01:50Z</time>
      </trkpt>
      <trkpt lat="43.69954" lon="0.82291">
        <ele>136.16</ele>
        <time>2020-12-09T11:02:10Z</time>
      </trkpt>
      <trkpt lat="43.69944" lon="0.82295">
        <ele>137.61</ele>
        <time>2020-12-09T11:02:20Z</time>
      </trkpt>
      <trkpt lat="43.69934" lon="0.823">
        <ele>138.09</ele>
        <time>2020-12-09T11:02:29Z</time>
      </trkpt>
      <trkpt lat="43.69924" lon="0.82304">
        <ele>139.05</ele>
        <time>2020-12-09T11:02:37Z</time>
      </trkpt>
      <trkpt lat="43.69914" lon="0.8231">
        <ele>140.01</ele>
        <time>2020-12-09T11:02:46Z</time>
      </trkpt>
      <trkpt lat="43.69904" lon="0.82313">
        <ele>140.49</ele>
        <time>2020-12-09T11:02:55Z</time>
      </trkpt>
      <trkpt lat="43.69893" lon="0.82315">
        <ele>141.45</ele>
        <time>2020-12-09T11:03:03Z</time>
      </trkpt>
      <trkpt lat="43.69882" lon="0.82317">
        <ele>142.89</ele>
        <time>2020-12-09T11:03:11Z</time>
      </trkpt>
      <trkpt lat="43.6987" lon="0.82319">
        <ele>143.85</ele>
        <time>2020-12-09T11:03:21Z</time>
      </trkpt>
      <trkpt lat="43.69858" lon="0.82322">
        <ele>145.3</ele>
        <time>2020-12-09T11:03:31Z</time>
      </trkpt>
      <trkpt lat="43.69846" lon="0.82325">
        <ele>146.26</ele>
        <time>2020-12-09T11:03:42Z</time>
      </trkpt>
      <trkpt lat="43.69832" lon="0.82329">
        <ele>147.7</ele>
        <time>2020-12-09T11:03:52Z</time>
      </trkpt>
      <trkpt lat="43.69819" lon="0.82332">
        <ele>148.66</ele>
        <time>2020-12-09T11:04:02Z</time>
      </trkpt>
      <trkpt lat="43.69806" lon="0.82334">
        <ele>150.1</ele>
        <time>2020-12-09T11:04:12Z</time>
      </trkpt>
      <trkpt lat="43.69794" lon="0.82336">
        <ele>151.54</ele>
        <time>2020-12-09T11:04:21Z</time>
      </trkpt>
      <trkpt lat="43.69782" lon="0.82337">
        <ele>152.99</ele>
        <time>2020-12-09T11:04:30Z</time>
      </trkpt>
      <trkpt lat="43.69768" lon="0.8234">
        <ele>153.95</ele>
        <time>2020-12-09T11:04:42Z</time>
      </trkpt>
      <trkpt lat="43.69756" lon="0.82339">
        <ele>154.91</ele>
        <time>2020-12-09T11:04:50Z</time>
      </trkpt>
      <trkpt lat="43.69744" lon="0.82337">
        <ele>155.39</ele>
        <time>2020-12-09T11:04:58Z</time>
      </trkpt>
      <trkpt lat="43.69734" lon="0.8233">
        <ele>155.87</ele>
        <time>2020-12-09T11:05:06Z</time>
      </trkpt>
      <trkpt lat="43.69723" lon="0.82324">
        <ele>156.35</ele>
        <time>2020-12-09T11:05:14Z</time>
      </trkpt>
      <trkpt lat="43.69714" lon="0.82317">
        <ele>156.83</ele>
        <time>2020-12-09T11:05:23Z</time>
      </trkpt>
      <trkpt lat="43.69702" lon="0.82309">
        <ele>157.31</ele>
        <time>2020-12-09T11:05:32Z</time>
      </trkpt>
      <trkpt lat="43.69693" lon="0.82302">
        <ele>157.31</ele>
        <time>2020-12-09T11:05:43Z</time>
      </trkpt>
      <trkpt lat="43.69683" lon="0.82296">
        <ele>157.31</ele>
        <time>2020-12-09T11:05:52Z</time>
      </trkpt>
      <trkpt lat="43.69674" lon="0.82289">
        <ele>157.79</ele>
        <time>2020-12-09T11:06:01Z</time>
      </trkpt>
      <trkpt lat="43.69666" lon="0.82283">
        <ele>157.79</ele>
        <time>2020-12-09T11:06:09Z</time>
      </trkpt>
      <trkpt lat="43.69658" lon="0.82276">
        <ele>157.79</ele>
        <time>2020-12-09T11:06:17Z</time>
      </trkpt>
      <trkpt lat="43.69649" lon="0.8227">
        <ele>158.27</ele>
        <time>2020-12-09T11:06:26Z</time>
      </trkpt>
      <trkpt lat="43.6964" lon="0.82263">
        <ele>158.27</ele>
        <time>2020-12-09T11:06:36Z</time>
      </trkpt>
      <trkpt lat="43.69631" lon="0.82256">
        <ele>158.75</ele>
        <time>2020-12-09T11:06:46Z</time>
      </trkpt>
      <trkpt lat="43.69621" lon="0.82248">
        <ele>158.75</ele>
        <time>2020-12-09T11:06:55Z</time>
      </trkpt>
      <trkpt lat="43.69613" lon="0.8224">
        <ele>159.24</ele>
        <time>2020-12-09T11:07:03Z</time>
      </trkpt>
      <trkpt lat="43.69604" lon="0.82233">
        <ele>159.24</ele>
        <time>2020-12-09T11:07:12Z</time>
      </trkpt>
      <trkpt lat="43.69594" lon="0.82227">
        <ele>160.2</ele>
        <time>2020-12-09T11:07:30Z</time>
      </trkpt>
      <trkpt lat="43.69585" lon="0.8222">
        <ele>160.2</ele>
        <time>2020-12-09T11:07:42Z</time>
      </trkpt>
      <trkpt lat="43.69575" lon="0.82213">
        <ele>160.2</ele>
        <time>2020-12-09T11:07:59Z</time>
      </trkpt>
      <trkpt lat="43.69566" lon="0.82201">
        <ele>160.2</ele>
        <time>2020-12-09T11:08:26Z</time>
      </trkpt>
      <trkpt lat="43.69563" lon="0.82185">
        <ele>158.27</ele>
        <time>2020-12-09T11:08:38Z</time>
      </trkpt>
      <trkpt lat="43.69564" lon="0.82168">
        <ele>157.31</ele>
        <time>2020-12-09T11:08:47Z</time>
      </trkpt>
      <trkpt lat="43.69568" lon="0.82152">
        <ele>155.87</ele>
        <time>2020-12-09T11:08:57Z</time>
      </trkpt>
      <trkpt lat="43.69573" lon="0.82137">
        <ele>154.43</ele>
        <time>2020-12-09T11:09:06Z</time>
      </trkpt>
      <trkpt lat="43.69578" lon="0.82119">
        <ele>153.47</ele>
        <time>2020-12-09T11:09:16Z</time>
      </trkpt>
      <trkpt lat="43.6958" lon="0.82103">
        <ele>152.51</ele>
        <time>2020-12-09T11:09:24Z</time>
      </trkpt>
      <trkpt lat="43.6958" lon="0.82088">
        <ele>152.03</ele>
        <time>2020-12-09T11:09:31Z</time>
      </trkpt>
      <trkpt lat="43.69578" lon="0.82073">
        <ele>151.54</ele>
        <time>2020-12-09T11:09:38Z</time>
      </trkpt>
      <trkpt lat="43.69573" lon="0.82059">
        <ele>151.06</ele>
        <time>2020-12-09T11:09:47Z</time>
      </trkpt>
      <trkpt lat="43.69567" lon="0.82047">
        <ele>150.58</ele>
        <time>2020-12-09T11:09:55Z</time>
      </trkpt>
      <trkpt lat="43.6956" lon="0.82035">
        <ele>150.58</ele>
        <time>2020-12-09T11:10:03Z</time>
      </trkpt>
      <trkpt lat="43.69549" lon="0.82024">
        <ele>150.58</ele>
        <time>2020-12-09T11:10:13Z</time>
      </trkpt>
      <trkpt lat="43.69536" lon="0.82018">
        <ele>150.58</ele>
        <time>2020-12-09T11:10:23Z</time>
      </trkpt>
      <trkpt lat="43.69524" lon="0.82014">
        <ele>152.51</ele>
        <time>2020-12-09T11:10:33Z</time>
      </trkpt>
      <trkpt lat="43.69511" lon="0.82012">
        <ele>154.43</ele>
        <time>2020-12-09T11:10:44Z</time>
      </trkpt>
      <trkpt lat="43.695" lon="0.82009">
        <ele>155.87</ele>
        <time>2020-12-09T11:10:52Z</time>
      </trkpt>
      <trkpt lat="43.6949" lon="0.82004">
        <ele>157.31</ele>
        <time>2020-12-09T11:11:00Z</time>
      </trkpt>
      <trkpt lat="43.69476" lon="0.82004">
        <ele>158.27</ele>
        <time>2020-12-09T11:11:10Z</time>
      </trkpt>
      <trkpt lat="43.69463" lon="0.81993">
        <ele>162.12</ele>
        <time>2020-12-09T11:11:20Z</time>
      </trkpt>
      <trkpt lat="43.69461" lon="0.81978">
        <ele>161.64</ele>
        <time>2020-12-09T11:11:31Z</time>
      </trkpt>
      <trkpt lat="43.69462" lon="0.81976">
        <ele>157.79</ele>
        <time>2020-12-09T11:11:45Z</time>
      </trkpt>
    </trkseg>
  </trk>
</gpx>